Provisional Data: Swatara Creek near Annville, PA


Please select a monitoring station.
Please select start date.
Please select start date.

Toggle Unit: C/F Toggle Unit: C/F
Sample Time Temperature (C) Temperature (F) Specific Conductivity (mS/cm) pH   Turbidity (NTU+) DO (mg/L)
1/15/2021 2:15:00 PM 4.52 40.136 0 6.53 11.34 12.79
1/15/2021 2:30:00 PM -100000 -179968 -100000 -100000 -100000 -100000
1/15/2021 2:45:00 PM -100000 -179968 -100000 -100000 -100000 -100000
1/15/2021 3:00:00 PM -100000 -179968 -100000 -100000 -100000 -100000
1/15/2021 3:15:00 PM 3.18 37.724 0.193 7.54 2.48 13.21
1/15/2021 3:30:00 PM 3.18 37.724 0.192 7.25 2.06 13.18
1/15/2021 3:45:00 PM 3.19 37.742 0.191 6.9 1.8 13.17
1/15/2021 4:00:00 PM 3.19 37.742 0.191 6.79 2.21 13.19
1/15/2021 4:15:00 PM 3.2 37.76 0.191 6.8 2.36 13.17
1/15/2021 4:30:00 PM 3.2 37.76 0.191 6.83 1.72 13.15
1/15/2021 4:45:00 PM 3.2 37.76 0.191 6.86 2.11 13.15
1/15/2021 5:00:00 PM 3.21 37.778 0.191 6.86 2.18 13.11
1/15/2021 5:15:00 PM 3.21 37.778 0.191 6.89 2.16 13.13
1/15/2021 5:30:00 PM 3.21 37.778 0.191 6.9 1.69 13.11
1/15/2021 5:45:00 PM 3.22 37.796 0.191 6.9 2.15 13.13
1/15/2021 6:00:00 PM 3.23 37.814 0.191 6.92 2.11 13.11
1/15/2021 6:15:00 PM 3.23 37.814 0.191 6.92 1.67 13.08
1/15/2021 6:30:00 PM 3.25 37.85 0.191 6.92 2.07 13.06
1/15/2021 6:45:00 PM 3.26 37.868 0.191 6.92 2.09 13.06
1/15/2021 7:00:00 PM 3.26 37.868 0.19 6.93 1.75 13.04
1/15/2021 7:15:00 PM 3.27 37.886 0.19 6.92 2.39 13.03
1/15/2021 7:30:00 PM 3.29 37.922 0.19 6.93 2.88 13.06
1/15/2021 7:45:00 PM 3.31 37.958 0.19 6.94 2.16 13.02
1/15/2021 8:00:00 PM 3.33 37.994 0.19 6.92 1.83 13.01
1/15/2021 8:15:00 PM 3.35 38.03 0.19 6.93 2.58 12.98
1/15/2021 8:30:00 PM 3.37 38.066 0.189 6.94 2.24 13
1/15/2021 8:45:00 PM 3.39 38.102 0.189 6.93 3.94 12.98
1/15/2021 9:00:00 PM 3.43 38.174 0.188 6.95 5.42 12.95
1/15/2021 9:15:00 PM 3.46 38.228 0.188 6.97 8.61 12.94
1/15/2021 9:30:00 PM 3.49 38.282 0.188 6.95 9.67 12.94
1/15/2021 9:45:00 PM 3.54 38.372 0.188 6.96 33.18 12.88
1/15/2021 10:00:00 PM 3.6 38.48 0.187 6.96 46.09 12.82
1/15/2021 10:15:00 PM 3.69 38.642 0.187 6.96 43.81 12.74
1/15/2021 10:30:00 PM 3.74 38.732 0.186 6.96 34.77 12.71
1/15/2021 10:45:00 PM 3.78 38.804 0.186 6.98 28.83 12.69
1/15/2021 11:00:00 PM 3.8 38.84 0.183 6.98 24.39 12.66
1/15/2021 11:15:00 PM 3.83 38.894 0.178 6.99 21.66 12.61
1/15/2021 11:30:00 PM 3.83 38.894 0.177 6.99 33.53 12.62
1/15/2021 11:45:00 PM 3.82 38.876 0.176 6.99 40.62 12.57
1/16/2021 12:00:00 AM 3.81 38.858 0.175 6.98 36.95 12.58
1/16/2021 12:15:00 AM 3.78 38.804 0.177 6.98 40.82 12.54
1/16/2021 12:30:00 AM 3.74 38.732 0.18 6.97 34.37 12.58
1/16/2021 12:45:00 AM 3.77 38.786 0.179 6.98 40.82 12.56
1/16/2021 1:00:00 AM 3.73 38.714 0.18 6.98 30.7 12.59
1/16/2021 1:15:00 AM 3.72 38.696 0.18 6.99 32.01 12.59
1/16/2021 1:30:00 AM 3.72 38.696 0.18 6.99 33.34 12.59
1/16/2021 1:45:00 AM 3.72 38.696 0.18 6.99 35.15 12.57
1/16/2021 2:00:00 AM 3.74 38.732 0.179 7 42.64 12.57
1/16/2021 2:15:00 AM 3.71 38.678 0.187 7.01 29.04 12.61
1/16/2021 2:30:00 AM 3.73 38.714 0.179 6.98 33.12 12.58
1/16/2021 2:45:00 AM 3.72 38.696 0.18 7 26.31 12.62
1/16/2021 3:00:00 AM 3.73 38.714 0.179 6.98 27.18 12.58
1/16/2021 3:15:00 AM 3.74 38.732 0.18 7 23.43 12.57
1/16/2021 3:30:00 AM 3.75 38.75 0.178 7 27.07 12.54
1/16/2021 3:45:00 AM 3.75 38.75 0.179 6.99 27.12 12.51
1/16/2021 4:00:00 AM 3.76 38.768 0.178 6.99 28.03 12.48
1/16/2021 4:15:00 AM 3.75 38.75 0.18 7 22.7 12.49
1/16/2021 4:30:00 AM 3.75 38.75 0.18 7.01 27.4 12.45
1/16/2021 4:45:00 AM 3.75 38.75 0.18 7 24.33 12.43
1/16/2021 5:00:00 AM 3.75 38.75 0.183 7.01 24.52 12.45
1/16/2021 5:15:00 AM 3.75 38.75 0.183 7.01 29.56 12.43
1/16/2021 5:30:00 AM 3.75 38.75 0.184 7 25.92 12.43
1/16/2021 5:45:00 AM 3.75 38.75 0.185 6.99 26.39 12.45
1/16/2021 6:00:00 AM 3.75 38.75 0.186 6.99 25.53 12.47
1/16/2021 6:15:00 AM 3.76 38.768 0.186 7 23.38 12.45
1/16/2021 6:30:00 AM 3.76 38.768 0.185 7 22.07 12.45
1/16/2021 6:45:00 AM 3.74 38.732 0.184 7 30.74 12.42
1/16/2021 7:00:00 AM 3.74 38.732 0.184 7.01 23.64 12.45
1/16/2021 7:15:00 AM 3.74 38.732 0.185 7.01 22.25 12.46
1/16/2021 7:30:00 AM 3.72 38.696 0.179 7.02 23.41 12.46
1/16/2021 7:45:00 AM 3.73 38.714 0.181 7.02 22.77 12.46
1/16/2021 8:00:00 AM 3.73 38.714 0.185 7.03 21.57 12.47
1/16/2021 8:15:00 AM 3.74 38.732 0.186 7.01 18.86 12.48
1/16/2021 8:30:00 AM 3.75 38.75 0.185 7.02 20.22 12.46
1/16/2021 8:45:00 AM 3.75 38.75 0.185 7.03 22.44 12.45
1/16/2021 9:00:00 AM 3.77 38.786 0.186 7.03 24.56 12.45
1/16/2021 9:15:00 AM 3.79 38.822 0.186 7.04 20.39 12.45
1/16/2021 9:30:00 AM 3.84 38.912 0.188 7.04 22.28 12.47
1/16/2021 9:45:00 AM 3.88 38.984 0.171 7.06 19.65 12.47
1/16/2021 10:00:00 AM 3.92 39.056 0.175 7.05 18.19 12.47
1/16/2021 10:15:00 AM 3.96 39.128 0.182 7.05 16.5 12.48
1/16/2021 10:30:00 AM 4 39.2 0.184 7.06 19.84 12.48
1/16/2021 10:45:00 AM 4.02 39.236 0.182 7.07 21.26 12.48
1/16/2021 11:00:00 AM 4.08 39.344 0.182 7.06 16.88 12.48
1/16/2021 11:15:00 AM 4.14 39.452 0.184 7.06 15.88 12.49
1/16/2021 11:30:00 AM 4.19 39.542 0.171 7.09 16.55 12.47
1/16/2021 11:45:00 AM 4.26 39.668 0.187 7.08 17.01 12.48
1/16/2021 12:00:00 PM 4.33 39.794 0.183 7.08 16.86 12.49
1/16/2021 12:15:00 PM 4.41 39.938 0.183 7.09 12.71 12.49
1/16/2021 12:30:00 PM 4.47 40.046 0.187 7.07 12.61 12.49
1/16/2021 12:45:00 PM 4.51 40.118 0.187 7.11 14.34 12.49
1/16/2021 1:00:00 PM 4.54 40.172 0.185 7.11 14.08 12.48
1/16/2021 1:15:00 PM 4.59 40.262 0.184 7.12 18.47 12.48
1/16/2021 1:30:00 PM 4.67 40.406 0.172 7.1 17.54 12.47
1/16/2021 1:45:00 PM 4.72 40.496 0.187 7.11 13.93 12.45
1/16/2021 2:00:00 PM 4.76 40.568 0.189 7.11 15.32 12.46
1/16/2021 2:15:00 PM 4.76 40.568 0.192 7.09 13.68 12.46
1/16/2021 2:30:00 PM 4.78 40.604 0.191 7.1 16.98 12.42
1/16/2021 2:45:00 PM 4.78 40.604 0.192 7.11 13.85 12.42
1/16/2021 3:00:00 PM 4.79 40.622 0.197 7.12 20.66 12.39
1/16/2021 3:15:00 PM 4.8 40.64 0.195 7.13 18.21 12.4
1/16/2021 3:30:00 PM 4.79 40.622 0.191 7.12 20.3 12.4
1/16/2021 3:45:00 PM 4.8 40.64 0.196 7.13 18.88 12.37
1/16/2021 4:00:00 PM 4.8 40.64 0.193 7.13 19.75 12.36
1/16/2021 4:15:00 PM 4.79 40.622 0.199 7.12 21.4 12.36
1/16/2021 4:30:00 PM 4.8 40.64 0.194 7.13 26.96 12.34
1/16/2021 4:45:00 PM 4.81 40.658 0.188 7.15 66.2 12.31
1/16/2021 5:00:00 PM 4.79 40.622 0.194 7.15 18.71 12.31
1/16/2021 5:15:00 PM 4.79 40.622 0.199 7.15 24.45 12.29
1/16/2021 5:30:00 PM 4.77 40.586 0.199 7.16 21.95 12.26
1/16/2021 5:45:00 PM 4.77 40.586 0.198 7.15 19.75 12.27
1/16/2021 6:00:00 PM 4.77 40.586 0.197 7.14 26.02 12.23
1/16/2021 6:15:00 PM 4.76 40.568 0.196 7.14 18.86 12.23
1/16/2021 6:30:00 PM 4.75 40.55 0.195 7.16 27.05 12.22
1/16/2021 6:45:00 PM 4.74 40.532 0.194 7.15 21.22 12.21
1/16/2021 7:00:00 PM 4.72 40.496 0.193 7.16 20.9 12.21
1/16/2021 7:15:00 PM 4.71 40.478 0.192 7.16 19.33 12.21
1/16/2021 7:30:00 PM 4.71 40.478 0.19 7.14 19.89 12.22
1/16/2021 7:45:00 PM 4.71 40.478 0.189 7.16 21.03 12.21
1/16/2021 8:00:00 PM 4.7 40.46 0.188 7.16 18.21 12.21
1/16/2021 8:15:00 PM 4.7 40.46 0.187 7.18 18.99 12.2
1/16/2021 8:30:00 PM 4.69 40.442 0.186 7.15 18.36 12.2
1/16/2021 8:45:00 PM 4.69 40.442 0.184 7.16 17.69 12.2
1/16/2021 9:00:00 PM 4.68 40.424 0.183 7.15 19.12 12.17
1/16/2021 9:15:00 PM 4.67 40.406 0.182 7.15 21.67 12.19
1/16/2021 9:30:00 PM 4.66 40.388 0.181 7.14 16.95 12.19
1/16/2021 9:45:00 PM 4.63 40.334 0.181 7.14 18.38 12.19
1/16/2021 10:00:00 PM 4.61 40.298 0.18 7.14 18.18 12.17
1/16/2021 10:15:00 PM 4.59 40.262 0.179 7.14 22.05 12.19
1/16/2021 10:30:00 PM 4.57 40.226 0.178 7.15 17.51 12.18
1/16/2021 10:45:00 PM 4.54 40.172 0.177 7.14 17.49 12.19
1/16/2021 11:00:00 PM 4.53 40.154 0.177 7.16 17.69 12.17
1/16/2021 11:15:00 PM 4.51 40.118 0.176 7.15 19.52 12.17
1/16/2021 11:30:00 PM 4.51 40.118 0.175 7.15 16.31 12.17
1/16/2021 11:45:00 PM 4.49 40.082 0.175 7.14 19.22 12.16
1/17/2021 12:00:00 AM 4.48 40.064 0.174 7.13 19.88 12.18
1/17/2021 12:15:00 AM 4.46 40.028 0.174 7.14 18.2 12.16
1/17/2021 12:30:00 AM 4.44 39.992 0.173 7.13 15.96 12.15
1/17/2021 12:45:00 AM 4.42 39.956 0.173 7.13 17.85 12.15
1/17/2021 1:00:00 AM 4.41 39.938 0.173 7.13 24.6 12.13
1/17/2021 1:15:00 AM 4.38 39.884 0.172 7.12 16.9 12.14
1/17/2021 1:30:00 AM 4.35 39.83 0.172 7.12 18.7 12.12
1/17/2021 1:45:00 AM 4.33 39.794 0.171 7.12 18.51 12.14
1/17/2021 2:00:00 AM 4.32 39.776 0.171 7.13 19.71 12.12
1/17/2021 2:15:00 AM 4.28 39.704 0.171 7.11 16.25 12.14
1/17/2021 2:30:00 AM 4.26 39.668 0.171 7.12 20.46 12.12
1/17/2021 2:45:00 AM 4.23 39.614 0.17 7.12 17.88 12.12
1/17/2021 3:00:00 AM 4.23 39.614 0.17 7.12 17.67 12.14
1/17/2021 3:15:00 AM 4.19 39.542 0.17 7.12 16.56 12.13
1/17/2021 3:30:00 AM 4.19 39.542 0.17 7.12 19.46 12.14
1/17/2021 3:45:00 AM 4.16 39.488 0.17 7.12 20.91 12.13
1/17/2021 4:00:00 AM 4.15 39.47 0.169 7.11 19.75 12.13
1/17/2021 4:15:00 AM 4.12 39.416 0.169 7.11 18.42 12.13
1/17/2021 4:30:00 AM 4.11 39.398 0.169 7.1 19.15 12.14
1/17/2021 4:45:00 AM 4.09 39.362 0.169 7.1 17.41 12.14
1/17/2021 5:00:00 AM 4.05 39.29 0.169 7.1 19.32 12.14
1/17/2021 5:15:00 AM 4.03 39.254 0.169 7.11 18.96 12.15
1/17/2021 5:30:00 AM 4.02 39.236 0.169 7.1 19.21 12.16
1/17/2021 5:45:00 AM 4 39.2 0.169 7.1 23.51 12.17
1/17/2021 6:00:00 AM 4.01 39.218 0.169 7.1 19.59 12.17
1/17/2021 6:15:00 AM 3.96 39.128 0.169 7.11 20.22 12.17
1/17/2021 6:30:00 AM 3.94 39.092 0.169 7.11 18.72 12.17
1/17/2021 6:45:00 AM 3.92 39.056 0.169 7.12 17.53 12.17
1/17/2021 7:00:00 AM 3.91 39.038 0.169 7.11 21.94 12.19
1/17/2021 7:15:00 AM 3.9 39.02 0.169 7.13 20.95 12.19
1/17/2021 7:30:00 AM 3.87 38.966 0.169 7.12 20.29 12.19
1/17/2021 7:45:00 AM 3.85 38.93 0.169 7.12 19.17 12.2
1/17/2021 8:00:00 AM 3.83 38.894 0.169 7.11 19.09 12.22
1/17/2021 8:15:00 AM 3.83 38.894 0.169 7.1 18.29 12.23
1/17/2021 8:30:00 AM 3.8 38.84 0.169 7.09 19.08 12.24
1/17/2021 8:45:00 AM 3.79 38.822 0.17 7.1 18.23 12.24
1/17/2021 9:00:00 AM 3.78 38.804 0.17 7.1 17.57 12.23
1/17/2021 9:15:00 AM 3.78 38.804 0.17 7.1 18.99 12.26
1/17/2021 9:30:00 AM 3.77 38.786 0.17 7.1 18.25 12.25
1/17/2021 9:45:00 AM 3.77 38.786 0.17 7.1 17.87 12.27
1/17/2021 10:00:00 AM 3.78 38.804 0.17 7.1 18.31 12.29
1/17/2021 10:15:00 AM 3.79 38.822 0.17 7.1 18.79 12.31
1/17/2021 10:30:00 AM 3.79 38.822 0.17 7.1 18.19 12.29
1/17/2021 10:45:00 AM 3.8 38.84 0.171 7.11 17.79 12.31
1/17/2021 11:00:00 AM 3.84 38.912 0.17 7.1 18.28 12.33
1/17/2021 11:15:00 AM 3.86 38.948 0.171 7.11 17.83 12.34
1/17/2021 11:30:00 AM 3.85 38.93 0.171 7.1 19.12 12.35
1/17/2021 11:45:00 AM 3.89 39.002 0.171 7.12 18.45 12.36
1/17/2021 12:00:00 PM 3.92 39.056 0.171 7.1 16.92 12.36
1/17/2021 12:15:00 PM 3.92 39.056 0.171 7.11 17.08 12.37
1/17/2021 12:30:00 PM 3.96 39.128 0.171 7.11 15.92 12.41
1/17/2021 12:45:00 PM 4 39.2 0.171 7.11 16.82 12.41
1/17/2021 1:00:00 PM 4.01 39.218 0.171 7.11 16.41 12.41
1/17/2021 1:15:00 PM 4.01 39.218 0.17 7.11 16.17 12.42
1/17/2021 1:30:00 PM 4.04 39.272 0.17 7.1 16.54 12.46
1/17/2021 1:45:00 PM 4.05 39.29 0.17 7.11 15.55 12.47
1/17/2021 2:00:00 PM 4.07 39.326 0.17 7.12 16.07 12.48
1/17/2021 2:15:00 PM 4.07 39.326 0.17 7.11 14.89 12.47
1/17/2021 2:30:00 PM 4.09 39.362 0.17 7.1 17.57 12.5
1/17/2021 2:45:00 PM 4.1 39.38 0.17 7.1 14.91 12.51
1/17/2021 3:00:00 PM 4.12 39.416 0.17 7.12 16.58 12.52
1/17/2021 3:15:00 PM 4.13 39.434 0.17 7.12 16.44 12.52
1/17/2021 3:30:00 PM 4.13 39.434 0.169 7.11 14.3 12.52
1/17/2021 3:45:00 PM 4.15 39.47 0.169 7.13 12.68 12.53
1/17/2021 4:00:00 PM 4.16 39.488 0.169 7.13 13.71 12.55
1/17/2021 4:15:00 PM 4.16 39.488 0.169 7.1 14.74 12.56
1/17/2021 4:30:00 PM 4.15 39.47 0.169 7.11 14.35 12.56
1/17/2021 4:45:00 PM 4.15 39.47 0.169 7.12 14.3 12.54
1/17/2021 5:00:00 PM 4.16 39.488 0.169 7.12 15.34 12.54
1/17/2021 5:15:00 PM 4.15 39.47 0.168 7.13 13.01 12.55
1/17/2021 5:30:00 PM 4.14 39.452 0.168 7.14 12.64 12.55
1/17/2021 5:45:00 PM 4.14 39.452 0.168 7.14 12.74 12.55
1/17/2021 6:00:00 PM 4.13 39.434 0.168 7.13 12.92 12.55
1/17/2021 6:15:00 PM 4.12 39.416 0.168 7.15 13.26 12.55
1/17/2021 6:30:00 PM 4.1 39.38 0.168 7.15 11.79 12.53
1/17/2021 6:45:00 PM 4.1 39.38 0.168 7.14 11.09 12.55
1/17/2021 7:00:00 PM 4.09 39.362 0.168 7.15 12.88 12.55
1/17/2021 7:15:00 PM 4.09 39.362 0.168 7.15 12.1 12.55
1/17/2021 7:30:00 PM 4.08 39.344 0.168 7.17 11.89 12.54
1/17/2021 7:45:00 PM 4.06 39.308 0.168 7.16 11.23 12.54
1/17/2021 8:00:00 PM 4.05 39.29 0.168 7.15 11.37 12.55
1/17/2021 8:15:00 PM 4.04 39.272 0.168 7.15 11.53 12.56
1/17/2021 8:30:00 PM 4.03 39.254 0.168 7.14 10.73 12.56
1/17/2021 8:45:00 PM 4.02 39.236 0.168 7.14 11.38 12.54
1/17/2021 9:00:00 PM 4.02 39.236 0.168 7.14 10.57 12.55
1/17/2021 9:15:00 PM 4 39.2 0.168 7.15 11.06 12.58
1/17/2021 9:30:00 PM 4 39.2 0.169 7.14 10.72 12.53
1/17/2021 9:45:00 PM 3.97 39.146 0.168 7.15 9.75 12.59
1/17/2021 10:00:00 PM 3.97 39.146 0.169 7.13 11.36 12.55
1/17/2021 10:15:00 PM 3.96 39.128 0.169 7.13 10.78 12.57
1/17/2021 10:30:00 PM 3.95 39.11 0.169 7.13 10.56 12.58
1/17/2021 10:45:00 PM 3.94 39.092 0.169 7.13 9.87 12.56
1/17/2021 11:00:00 PM 3.93 39.074 0.169 7.13 9.32 12.56
1/17/2021 11:15:00 PM 3.92 39.056 0.169 7.13 10.47 12.57
1/17/2021 11:30:00 PM 3.91 39.038 0.169 7.13 9.5 12.59
1/17/2021 11:45:00 PM 3.9 39.02 0.169 7.14 9 12.6
1/18/2021 12:00:00 AM 3.89 39.002 0.169 7.14 11.19 12.59
1/18/2021 12:15:00 AM 3.87 38.966 0.169 7.14 8.88 12.6
1/18/2021 12:30:00 AM 3.85 38.93 0.169 7.14 8.95 12.61
1/18/2021 12:45:00 AM 3.84 38.912 0.17 7.14 9 12.6
1/18/2021 1:00:00 AM 3.82 38.876 0.17 7.14 8.26 12.61
1/18/2021 1:15:00 AM 3.81 38.858 0.17 7.14 10.62 12.61
1/18/2021 1:30:00 AM 3.8 38.84 0.17 7.13 8.71 12.6
1/18/2021 1:45:00 AM 3.79 38.822 0.17 7.12 8.77 12.61
1/18/2021 2:00:00 AM 3.78 38.804 0.17 7.12 8.47 12.61
1/18/2021 2:15:00 AM 3.78 38.804 0.17 7.13 7.62 12.63
1/18/2021 2:30:00 AM 3.77 38.786 0.171 7.12 8.2 12.61
1/18/2021 2:45:00 AM 3.76 38.768 0.171 7.13 8.07 12.62
1/18/2021 3:00:00 AM 3.75 38.75 0.171 7.12 8.11 12.61
1/18/2021 3:15:00 AM 3.74 38.732 0.171 7.14 7.59 12.61
1/18/2021 3:30:00 AM 3.73 38.714 0.171 7.14 8.15 12.62
1/18/2021 3:45:00 AM 3.72 38.696 0.171 7.13 8.74 12.62
1/18/2021 4:00:00 AM 3.7 38.66 0.171 7.14 7.13 12.61
1/18/2021 4:15:00 AM 3.68 38.624 0.172 7.14 7.93 12.61
1/18/2021 4:30:00 AM 3.65 38.57 0.172 7.13 7.99 12.62
1/18/2021 4:45:00 AM 3.63 38.534 0.172 7.14 7.65 12.62
1/18/2021 5:00:00 AM 3.6 38.48 0.173 7.14 7.55 12.62
1/18/2021 5:15:00 AM 3.6 38.48 0.172 7.13 7.65 12.62
1/18/2021 5:30:00 AM 3.58 38.444 0.172 7.14 7.35 12.62
1/18/2021 5:45:00 AM 3.56 38.408 0.173 7.14 7.62 12.62
1/18/2021 6:00:00 AM 3.55 38.39 0.172 7.12 6.53 12.63
1/18/2021 6:15:00 AM 3.52 38.336 0.173 7.13 7.24 12.62
1/18/2021 6:30:00 AM 3.51 38.318 0.173 7.13 7.36 12.63
1/18/2021 6:45:00 AM 3.49 38.282 0.173 7.13 7.17 12.63
1/18/2021 7:00:00 AM 3.46 38.228 0.173 7.13 8.42 12.62
1/18/2021 7:15:00 AM 3.45 38.21 0.173 7.12 6.59 12.63
1/18/2021 7:30:00 AM 3.43 38.174 0.173 7.13 6.67 12.64
1/18/2021 7:45:00 AM 3.43 38.174 0.173 7.13 6.43 12.64
1/18/2021 8:00:00 AM 3.43 38.174 0.173 7.14 6.48 12.64
1/18/2021 8:15:00 AM 3.43 38.174 0.173 7.13 5.78 12.64
1/18/2021 8:30:00 AM 3.41 38.138 0.174 7.12 6.73 12.65
1/18/2021 8:45:00 AM 3.43 38.174 0.173 7.13 6.76 12.67
1/18/2021 9:00:00 AM 3.43 38.174 0.174 7.13 6.46 12.65
1/18/2021 9:15:00 AM 3.45 38.21 0.174 7.13 5.75 12.67
1/18/2021 9:30:00 AM 3.49 38.282 0.174 7.12 6.23 12.67
1/18/2021 9:45:00 AM 3.49 38.282 0.174 7.12 7.22 12.7
1/18/2021 10:00:00 AM 3.51 38.318 0.174 7.14 5.86 12.7
1/18/2021 10:15:00 AM 3.52 38.336 0.174 7.14 5.96 12.7
1/18/2021 10:30:00 AM 3.53 38.354 0.174 7.13 5.53 12.72
1/18/2021 10:45:00 AM 3.56 38.408 0.174 7.14 5.49 12.74
1/18/2021 11:00:00 AM 3.58 38.444 0.174 7.13 5.55 12.76
1/18/2021 11:15:00 AM 3.61 38.498 0.174 7.13 6.37 12.77
1/18/2021 11:30:00 AM 3.64 38.552 0.174 7.14 5.65 12.8
1/18/2021 11:45:00 AM 3.66 38.588 0.174 7.15 5.66 12.81
1/18/2021 12:00:00 PM 3.69 38.642 0.174 7.15 5.6 12.82
1/18/2021 12:15:00 PM 3.73 38.714 0.174 7.15 5.23 12.82
1/18/2021 12:30:00 PM 3.76 38.768 0.174 7.16 5.31 12.82
1/18/2021 12:45:00 PM 3.78 38.804 0.174 7.16 5.6 12.83
1/18/2021 1:00:00 PM 3.85 38.93 0.174 7.16 5.01 12.85
1/18/2021 1:15:00 PM 3.89 39.002 0.174 7.17 6.31 12.86
1/18/2021 1:30:00 PM 3.9 39.02 0.174 7.17 5.9 12.86
1/18/2021 1:45:00 PM 3.97 39.146 0.174 7.17 5.25 12.88
1/18/2021 2:00:00 PM 3.99 39.182 0.174 7.18 5.65 12.88
1/18/2021 2:15:00 PM 4.01 39.218 0.159 7.18 5.13 12.91
1/18/2021 2:30:00 PM 4.03 39.254 0.174 7.17 5.46 12.9
1/18/2021 2:45:00 PM 4.04 39.272 0.174 7.17 5.21 12.9
1/18/2021 3:00:00 PM 4.06 39.308 0.174 7.18 5.07 12.9
1/18/2021 3:15:00 PM 4.07 39.326 0.174 7.17 5.75 12.92
1/18/2021 3:30:00 PM 4.06 39.308 0.174 7.19 5.49 12.92
1/18/2021 3:45:00 PM 4.05 39.29 0.174 7.2 4.67 12.94
1/18/2021 4:00:00 PM 4.04 39.272 0.17 7.2 4.95 12.93
1/18/2021 4:15:00 PM 4.01 39.218 0.158 7.2 4.42 12.95
1/18/2021 4:30:00 PM 3.99 39.182 0.164 7.21 4.92 12.95
1/18/2021 4:45:00 PM 3.97 39.146 0.162 7.2 5.12 12.93
1/18/2021 5:00:00 PM 3.95 39.11 0.166 7.18 5.02 12.94
1/18/2021 5:15:00 PM 3.93 39.074 0.167 7.19 4.95 12.92
1/18/2021 5:30:00 PM 3.92 39.056 0.172 7.2 4.72 12.93
1/18/2021 5:45:00 PM 3.89 39.002 0.169 7.2 5.01 12.92
1/18/2021 6:00:00 PM 3.86 38.948 0.169 7.2 4.46 12.93
1/18/2021 6:15:00 PM 3.84 38.912 0.168 7.2 4.96 12.93
1/18/2021 6:30:00 PM 3.81 38.858 0.164 7.21 5 12.91
1/18/2021 6:45:00 PM 3.79 38.822 0.172 7.18 4.46 12.92
1/18/2021 7:00:00 PM 3.77 38.786 0.173 7.18 4.66 12.9
1/18/2021 7:15:00 PM 3.74 38.732 0.172 7.2 4.56 12.93
1/18/2021 7:30:00 PM 3.72 38.696 0.173 7.19 4 12.91
1/18/2021 7:45:00 PM 3.7 38.66 0.175 7.2 4.51 12.91
1/18/2021 8:00:00 PM 3.69 38.642 0.175 7.2 4.59 12.91
1/18/2021 8:15:00 PM 3.68 38.624 0.174 7.2 4.26 12.92
1/18/2021 8:30:00 PM 3.67 38.606 0.174 7.2 4.37 12.92
1/18/2021 8:45:00 PM 3.65 38.57 0.174 7.21 4.39 12.91
1/18/2021 9:00:00 PM 3.65 38.57 0.175 7.2 4.34 12.91
1/18/2021 9:15:00 PM 3.63 38.534 0.175 7.2 4.57 12.91
1/18/2021 9:30:00 PM 3.62 38.516 0.175 7.21 4.32 12.91
1/18/2021 9:45:00 PM 3.6 38.48 0.176 7.21 4.43 12.86
1/18/2021 10:00:00 PM 3.59 38.462 0.175 7.21 4.35 12.91
1/18/2021 10:15:00 PM 3.58 38.444 0.172 7.21 5.52 12.92
1/18/2021 10:30:00 PM 3.57 38.426 0.174 7.2 4.4 12.9
1/18/2021 10:45:00 PM 3.56 38.408 0.159 7.2 4.53 12.91
1/18/2021 11:00:00 PM 3.55 38.39 0.176 7.2 5.38 12.9
1/18/2021 11:15:00 PM 3.53 38.354 0.173 7.2 4.5 12.91
1/18/2021 11:30:00 PM 3.53 38.354 0.174 7.19 4.32 12.92
1/18/2021 11:45:00 PM 3.52 38.336 0.176 7.17 4.71 12.91
1/19/2021 12:00:00 AM 3.5 38.3 0.159 7.19 4.27 12.92
1/19/2021 12:15:00 AM 3.49 38.282 0.159 7.18 3.99 12.91
1/19/2021 12:30:00 AM 3.48 38.264 0.157 7.18 4.09 12.91
1/19/2021 12:45:00 AM 3.47 38.246 0.162 7.18 4.6 12.92
1/19/2021 1:00:00 AM 3.46 38.228 0.161 7.19 4.09 12.92
1/19/2021 1:15:00 AM 3.46 38.228 0.155 7.19 3.74 12.93
1/19/2021 1:30:00 AM 3.45 38.21 0.159 7.19 3.89 12.93
1/19/2021 1:45:00 AM 3.44 38.192 0.159 7.19 4.34 12.92
1/19/2021 2:00:00 AM 3.44 38.192 0.166 7.19 4.47 12.91
1/19/2021 2:15:00 AM 3.42 38.156 0.162 7.19 4.54 12.92
1/19/2021 2:30:00 AM 3.41 38.138 0.163 7.18 3.86 12.92
1/19/2021 2:45:00 AM 3.4 38.12 0.172 7.19 4.17 12.9
1/19/2021 3:00:00 AM 3.38 38.084 0.175 7.19 4.04 12.91
1/19/2021 3:15:00 AM 3.37 38.066 0.159 7.17 4.06 12.91
1/19/2021 3:30:00 AM 3.36 38.048 0.156 7.18 4.16 12.92
1/19/2021 3:45:00 AM 3.36 38.048 0.176 7.17 3.99 12.93
1/19/2021 4:00:00 AM 3.35 38.03 0.176 7.19 3.9 12.92
1/19/2021 4:15:00 AM 3.34 38.012 0.176 7.19 3.86 12.92
1/19/2021 4:30:00 AM 3.34 38.012 0.176 7.17 4.45 12.92
1/19/2021 4:45:00 AM 3.33 37.994 0.172 7.17 4.06 12.92
1/19/2021 5:00:00 AM 3.32 37.976 0.161 7.18 4.23 12.92
1/19/2021 5:15:00 AM 3.33 37.994 0.166 7.18 3.92 12.93
1/19/2021 5:30:00 AM 3.31 37.958 0.178 7.18 4.38 12.91
1/19/2021 5:45:00 AM 3.3 37.94 0.178 7.17 3.79 12.91
1/19/2021 6:00:00 AM 3.3 37.94 0.178 7.17 4.26 12.91
1/19/2021 6:15:00 AM 3.28 37.904 0.178 7.18 3.29 12.92
1/19/2021 6:30:00 AM 3.27 37.886 0.178 7.17 3.94 12.93
1/19/2021 6:45:00 AM 3.26 37.868 0.178 7.18 3.47 12.91
1/19/2021 7:00:00 AM 3.24 37.832 0.179 7.17 3.48 12.93
1/19/2021 7:15:00 AM 3.24 37.832 0.179 7.18 3.68 12.92
1/19/2021 7:30:00 AM 3.23 37.814 0.178 7.19 3.88 12.92
1/19/2021 7:45:00 AM 3.2 37.76 0.179 7.18 3.81 12.94
1/19/2021 8:00:00 AM 3.18 37.724 0.179 7.17 3.49 12.91
1/19/2021 8:15:00 AM 3.18 37.724 0.179 7.17 3.56 12.91
1/19/2021 8:30:00 AM 3.17 37.706 0.179 7.17 3.7 12.93
1/19/2021 8:45:00 AM 3.18 37.724 0.162 7.16 3.75 12.95
1/19/2021 9:00:00 AM 3.17 37.706 0.178 7.17 3.72 12.94
1/19/2021 9:15:00 AM 3.18 37.724 0.179 7.17 3.51 12.98
1/19/2021 9:30:00 AM 3.19 37.742 0.179 7.17 3.8 12.98
1/19/2021 9:45:00 AM 3.2 37.76 0.159 7.17 3.72 12.99
1/19/2021 10:00:00 AM 3.21 37.778 0.181 7.17 3.79 13.01
1/19/2021 10:15:00 AM 3.25 37.85 0.169 7.17 3.29 13.03
1/19/2021 10:30:00 AM 3.28 37.904 0.179 7.17 3.7 13.05
1/19/2021 10:45:00 AM 3.31 37.958 0.18 7.18 3.47 13.05
1/19/2021 11:00:00 AM 3.34 38.012 0.179 7.19 3.41 13.08
1/19/2021 11:15:00 AM 3.44 38.192 0.179 7.18 2.99 13.1
1/19/2021 11:30:00 AM 3.47 38.246 0.18 7.19 3.21 13.1
1/19/2021 11:45:00 AM 3.59 38.462 0.179 7.19 3.42 13.11
1/19/2021 12:00:00 PM 3.57 38.426 0.18 7.19 3.65 13.13
1/19/2021 12:15:00 PM 3.62 38.516 0.18 7.2 3.41 13.13
1/19/2021 12:30:00 PM 3.68 38.624 0.179 7.2 3.03 13.14
1/19/2021 12:45:00 PM 3.71 38.678 0.179 7.2 3.38 13.16
1/19/2021 1:00:00 PM 3.78 38.804 0.18 7.2 3.54 13.16
1/19/2021 1:15:00 PM 3.83 38.894 0.18 7.21 3.35 13.16
1/19/2021 1:30:00 PM 3.87 38.966 0.18 7.2 3.33 13.17
1/19/2021 1:45:00 PM 3.91 39.038 0.18 7.2 3.42 13.17
1/19/2021 2:00:00 PM 3.97 39.146 0.18 7.2 3.35 13.19
1/19/2021 2:15:00 PM 4.01 39.218 0.18 7.2 3.33 13.19
1/19/2021 2:30:00 PM 4.04 39.272 0.18 7.21 4.15 13.2
1/19/2021 2:45:00 PM 4.08 39.344 0.18 7.21 3.82 13.18
1/19/2021 3:00:00 PM 4.08 39.344 0.18 7.21 2.85 13.2
1/19/2021 3:15:00 PM 4.09 39.362 0.18 7.22 3.06 13.2
1/19/2021 3:30:00 PM 4.1 39.38 0.18 7.22 3.13 13.19
1/19/2021 3:45:00 PM 4.09 39.362 0.18 7.22 3.06 13.21
1/19/2021 4:00:00 PM 4.07 39.326 0.18 7.21 3.26 13.21
1/19/2021 4:15:00 PM 4.03 39.254 0.175 7.23 2.51 13.21
1/19/2021 4:30:00 PM 4.01 39.218 0.18 7.23 2.91 13.2
1/19/2021 4:45:00 PM 4 39.2 0.169 7.22 3.32 13.19
1/19/2021 5:00:00 PM 3.96 39.128 0.18 7.23 3.01 13.19
1/19/2021 5:15:00 PM 3.93 39.074 0.171 7.23 2.79 13.2
1/19/2021 5:30:00 PM 3.88 38.984 0.18 7.23 2.85 13.18
1/19/2021 5:45:00 PM 3.85 38.93 0.16 7.23 3.15 13.17
1/19/2021 6:00:00 PM 3.83 38.894 0.161 7.23 3.35 13.18
1/19/2021 6:15:00 PM 3.8 38.84 0.163 7.21 3 13.16
1/19/2021 6:30:00 PM 3.76 38.768 0.18 7.22 3.23 13.16
1/19/2021 6:45:00 PM 3.74 38.732 0.167 7.21 3.02 13.16
1/19/2021 7:00:00 PM 3.72 38.696 0.177 7.22 3.7 13.15
1/19/2021 7:15:00 PM 3.71 38.678 0.18 7.21 3.11 13.13
1/19/2021 7:30:00 PM 3.69 38.642 0.16 7.22 3 13.13
1/19/2021 7:45:00 PM 3.67 38.606 0.164 7.21 3.54 13.12
1/19/2021 8:00:00 PM 3.65 38.57 0.181 7.2 3.38 13.12
1/19/2021 8:15:00 PM 3.63 38.534 0.181 7.21 4.15 13.12
1/19/2021 8:30:00 PM 3.6 38.48 0.181 7.2 4.25 13.1
1/19/2021 8:45:00 PM 3.58 38.444 0.181 7.2 3.15 13.12
1/19/2021 9:00:00 PM 3.56 38.408 0.181 7.2 3.76 13.11
1/19/2021 9:15:00 PM 3.54 38.372 0.181 7.21 2.95 13.11
1/19/2021 9:30:00 PM 3.51 38.318 0.181 7.2 5.32 13.1
1/19/2021 9:45:00 PM 3.48 38.264 0.181 7.21 3.25 13.1
1/19/2021 10:00:00 PM 3.45 38.21 0.181 7.21 3 13.11
1/19/2021 10:15:00 PM 3.43 38.174 0.168 7.22 2.75 13.12
1/19/2021 10:30:00 PM 3.42 38.156 0.18 7.22 3.75 13.11
1/19/2021 10:45:00 PM 3.4 38.12 0.173 7.21 3.96 13.11
1/19/2021 11:00:00 PM 3.38 38.084 0.18 7.21 3.88 13.1
1/19/2021 11:15:00 PM 3.36 38.048 0.18 7.2 3.35 13.1
1/19/2021 11:30:00 PM 3.35 38.03 0.18 7.21 3.56 13.1
1/19/2021 11:45:00 PM 3.34 38.012 0.18 7.21 2.88 13.11
1/20/2021 12:00:00 AM 3.32 37.976 0.162 7.2 3.04 13.1
1/20/2021 12:15:00 AM 3.31 37.958 0.18 7.21 3.22 13.11
1/20/2021 12:30:00 AM 3.28 37.904 0.162 7.2 3.28 13.1
1/20/2021 12:45:00 AM 3.27 37.886 0.183 7.2 3.26 13.11
1/20/2021 1:00:00 AM 3.26 37.868 0.182 7.2 3.43 13.11
1/20/2021 1:15:00 AM 3.24 37.832 0.181 7.2 3.35 13.11
1/20/2021 1:30:00 AM 3.23 37.814 0.181 7.2 3.46 13.11
1/20/2021 1:45:00 AM 3.21 37.778 0.181 7.21 3.44 13.07
1/20/2021 2:00:00 AM 3.19 37.742 0.181 7.19 4.11 13.09
1/20/2021 2:15:00 AM 3.18 37.724 0.181 7.2 4.58 13.12
1/20/2021 2:30:00 AM 3.16 37.688 0.182 7.2 3.71 13.1
1/20/2021 2:45:00 AM 3.15 37.67 0.181 7.19 3.42 13.11
1/20/2021 3:00:00 AM 3.12 37.616 0.182 7.2 3.27 13.09
1/20/2021 3:15:00 AM 3.11 37.598 0.182 7.19 3.72 13.11
1/20/2021 3:30:00 AM 3.1 37.58 0.182 7.19 3.75 13.1
1/20/2021 3:45:00 AM 3.09 37.562 0.182 7.19 3.52 13.11
1/20/2021 4:00:00 AM 3.07 37.526 0.182 7.19 3.52 13.11
1/20/2021 4:15:00 AM 3.06 37.508 0.182 7.19 3.5 13.11
1/20/2021 4:30:00 AM 3.05 37.49 0.182 7.19 4.09 13.08
1/20/2021 4:45:00 AM 3.04 37.472 0.182 7.18 3.33 13.1
1/20/2021 5:00:00 AM 3.02 37.436 0.183 7.17 3.53 13.1
1/20/2021 5:15:00 AM 3.03 37.454 0.182 7.19 3.72 13.08
1/20/2021 5:30:00 AM 3.02 37.436 0.183 7.19 3.74 13.09
1/20/2021 5:45:00 AM 3.01 37.418 0.183 7.18 3.8 13.08
1/20/2021 6:00:00 AM 3.01 37.418 0.183 7.19 3.72 13.08
1/20/2021 6:15:00 AM 2.99 37.382 0.183 7.2 3.67 13.07
1/20/2021 6:30:00 AM 2.97 37.346 0.183 7.2 3.72 13.06
1/20/2021 6:45:00 AM 2.95 37.31 0.183 7.2 3.4 13.08
1/20/2021 7:00:00 AM 2.93 37.274 0.183 7.19 3.31 13.08
1/20/2021 7:15:00 AM 2.91 37.238 0.183 7.19 2.81 13.07
1/20/2021 7:30:00 AM 2.89 37.202 0.183 7.18 2.95 13.07
1/20/2021 7:45:00 AM 2.88 37.184 0.169 7.19 3.41 13.07
1/20/2021 8:00:00 AM 2.86 37.148 0.165 7.18 3.49 13.06
1/20/2021 8:15:00 AM 2.85 37.13 0.169 7.19 3.47 13.07
1/20/2021 8:30:00 AM 2.83 37.094 0.181 7.18 3.27 13.08
1/20/2021 8:45:00 AM 2.82 37.076 0.175 7.19 3.5 13.09
1/20/2021 9:00:00 AM 2.81 37.058 0.183 7.19 3.95 13.09
1/20/2021 9:15:00 AM 2.82 37.076 0.181 7.19 3.14 13.1
1/20/2021 9:30:00 AM 2.83 37.094 0.183 7.18 3.07 13.12
1/20/2021 9:45:00 AM 2.82 37.076 0.166 7.2 3.22 13.12
1/20/2021 10:00:00 AM 2.84 37.112 0.185 7.19 3.36 13.14
1/20/2021 10:15:00 AM 2.89 37.202 0.181 7.19 3.32 13.15
1/20/2021 10:30:00 AM 2.88 37.184 0.183 7.19 3.21 13.17
1/20/2021 10:45:00 AM 2.88 37.184 0.183 7.19 3.02 13.2
1/20/2021 11:00:00 AM 2.85 37.13 0.173 7.19 4.04 13.2
1/20/2021 11:15:00 AM 2.86 37.148 0.181 7.2 3.51 13.19
1/20/2021 11:30:00 AM 2.94 37.292 0.181 7.2 3.93 13.2
1/20/2021 11:45:00 AM 2.99 37.382 0.181 7.19 3.25 13.22
1/20/2021 12:00:00 PM 2.98 37.364 0.181 7.2 2.79 13.24
1/20/2021 12:15:00 PM 3.03 37.454 0.181 7.21 3.06 13.26
1/20/2021 12:30:00 PM 3.14 37.652 0.181 7.19 3.78 13.28
1/20/2021 12:45:00 PM 3.24 37.832 0.181 7.2 3.17 13.29
1/20/2021 1:00:00 PM 3.18 37.724 0.181 7.21 3.38 13.28
1/20/2021 1:15:00 PM 3.13 37.634 0.181 7.2 3.22 13.3
1/20/2021 1:30:00 PM 3.19 37.742 0.182 7.21 3.14 13.31
1/20/2021 1:45:00 PM 3.23 37.814 0.182 7.2 3.33 13.34
1/20/2021 2:00:00 PM 3.19 37.742 0.182 7.22 3.06 13.33
1/20/2021 2:15:00 PM 3.15 37.67 0.182 7.22 2.97 13.33
1/20/2021 2:30:00 PM 3.17 37.706 0.181 7.22 3.52 13.34
1/20/2021 2:45:00 PM 3.2 37.76 0.182 7.22 4.66 13.34
1/20/2021 3:00:00 PM 3.19 37.742 0.17 7.22 7.02 13.36
1/20/2021 3:15:00 PM 3.18 37.724 0.182 7.22 4.67 13.35
1/20/2021 3:30:00 PM 3.19 37.742 0.182 7.22 4.99 13.36
1/20/2021 3:45:00 PM 3.21 37.778 0.17 7.23 5.23 13.36
1/20/2021 4:00:00 PM 3.22 37.796 0.183 7.22 5.75 13.35
1/20/2021 4:15:00 PM 3.24 37.832 0.179 7.23 5.17 13.37
1/20/2021 4:30:00 PM 3.24 37.832 0.183 7.23 6.61 13.37
1/20/2021 4:45:00 PM 3.23 37.814 0.183 7.23 6.73 13.35
1/20/2021 5:00:00 PM 3.2 37.76 0.183 7.24 7.69 13.37
1/20/2021 5:15:00 PM 3.16 37.688 0.183 7.23 5.84 13.36
1/20/2021 5:30:00 PM 3.12 37.616 0.182 7.22 5.43 13.37
1/20/2021 5:45:00 PM 3.07 37.526 0.17 7.22 5.03 13.33
1/20/2021 6:00:00 PM 3.03 37.454 0.164 7.22 5.4 13.37
1/20/2021 6:15:00 PM 2.98 37.364 0.182 7.22 5.28 13.37
1/20/2021 6:30:00 PM 2.94 37.292 0.179 7.23 5.53 13.38
1/20/2021 6:45:00 PM 2.9 37.22 0.165 7.21 5.82 13.35
1/20/2021 7:00:00 PM 2.85 37.13 0.176 7.21 5.89 13.34
1/20/2021 7:15:00 PM 2.82 37.076 0.183 7.21 6.13 13.35
1/20/2021 7:30:00 PM 2.77 36.986 0.183 7.21 6.05 13.36
1/20/2021 7:45:00 PM 2.74 36.932 0.184 7.22 6.57 13.34
1/20/2021 8:00:00 PM 2.71 36.878 0.183 7.21 7.15 13.34
1/20/2021 8:15:00 PM 2.67 36.806 0.183 7.21 6.67 13.33
1/20/2021 8:30:00 PM 2.64 36.752 0.183 7.21 4.76 13.36
1/20/2021 8:45:00 PM 2.61 36.698 0.181 7.21 7.62 13.33
1/20/2021 9:00:00 PM 2.59 36.662 0.182 7.22 8.92 13.35
1/20/2021 9:15:00 PM 2.57 36.626 0.183 7.21 6.75 13.35
1/20/2021 9:30:00 PM 2.55 36.59 0.176 7.21 6.2 13.35
1/20/2021 9:45:00 PM 2.53 36.554 0.162 7.21 6.27 13.36
1/20/2021 10:00:00 PM 2.51 36.518 0.167 7.21 4.63 13.37
1/20/2021 10:15:00 PM 2.47 36.446 0.169 7.21 7.38 13.38
1/20/2021 10:30:00 PM 2.44 36.392 0.173 7.21 6.61 13.37
1/20/2021 10:45:00 PM 2.4 36.32 0.183 7.21 5.2 13.36
1/20/2021 11:00:00 PM 2.36 36.248 0.183 7.21 5.31 13.4
1/20/2021 11:15:00 PM 2.33 36.194 0.183 7.21 3.64 13.41
1/20/2021 11:30:00 PM 2.3 36.14 0.185 7.21 4.27 13.4
1/20/2021 11:45:00 PM 2.26 36.068 0.184 7.21 4.01 13.42
1/21/2021 12:00:00 AM 2.23 36.014 0.183 7.21 3.53 13.42
1/21/2021 12:15:00 AM 2.2 35.96 0.184 7.21 3.84 13.43
1/21/2021 12:30:00 AM 2.17 35.906 0.16 7.21 3.33 13.43
1/21/2021 12:45:00 AM 2.14 35.852 0.182 7.2 4.02 13.44
1/21/2021 1:00:00 AM 2.11 35.798 0.183 7.2 4.15 13.44
1/21/2021 1:15:00 AM 2.06 35.708 0.166 7.2 3.23 13.46
1/21/2021 1:30:00 AM 2.03 35.654 0.172 7.2 3.62 13.46
1/21/2021 1:45:00 AM 1.99 35.582 0.183 7.19 3.63 13.47
1/21/2021 2:00:00 AM 1.95 35.51 0.184 7.2 2.95 13.49
1/21/2021 2:15:00 AM 1.92 35.456 0.165 7.19 3.07 13.5
1/21/2021 2:30:00 AM 1.87 35.366 0.167 7.19 3.01 13.51
1/21/2021 2:45:00 AM 1.86 35.348 0.184 7.19 3.72 13.51
1/21/2021 3:00:00 AM 1.82 35.276 0.184 7.19 2.38 13.53
1/21/2021 3:15:00 AM 1.76 35.168 0.184 7.18 3.05 13.52
1/21/2021 3:30:00 AM 1.72 35.096 0.17 7.19 3.32 13.53
1/21/2021 3:45:00 AM 1.7 35.06 0.182 7.18 3.04 13.54
1/21/2021 4:00:00 AM 1.68 35.024 0.182 7.18 3.16 13.54
1/21/2021 4:15:00 AM 1.65 34.97 0.182 7.18 3.52 13.56
1/21/2021 4:30:00 AM 1.62 34.916 0.173 7.17 4.75 13.55
1/21/2021 4:45:00 AM 1.59 34.862 0.177 7.18 3.64 13.55
1/21/2021 5:00:00 AM 1.56 34.808 0.175 7.18 3.09 13.55
1/21/2021 5:15:00 AM 1.54 34.772 0.179 7.18 3.02 13.55
1/21/2021 5:30:00 AM 1.52 34.736 0.18 7.19 2.25 13.56
1/21/2021 5:45:00 AM 1.5 34.7 0.179 7.2 3.12 13.55
1/21/2021 6:00:00 AM 1.49 34.682 0.18 7.2 2.76 13.56
1/21/2021 6:15:00 AM 1.46 34.628 0.18 7.19 2.69 13.56
1/21/2021 6:30:00 AM 1.47 34.646 0.18 7.2 2.71 13.55
1/21/2021 6:45:00 AM 1.46 34.628 0.17 7.2 2.42 13.56
1/21/2021 7:00:00 AM 1.42 34.556 0.164 7.2 2.69 13.58
1/21/2021 7:15:00 AM 1.44 34.592 0.163 7.2 2.77 13.56
1/21/2021 7:30:00 AM 1.43 34.574 0.174 7.2 2.32 13.57
1/21/2021 7:45:00 AM 1.42 34.556 0.172 7.2 2.25 13.55
1/21/2021 8:00:00 AM 1.41 34.538 0.181 7.2 2.62 13.56
1/21/2021 8:15:00 AM 1.4 34.52 0.168 7.19 3.03 13.58
1/21/2021 8:30:00 AM 1.39 34.502 0.169 7.19 2.44 13.58
1/21/2021 8:45:00 AM 1.38 34.484 0.173 7.19 2.58 13.57
1/21/2021 9:00:00 AM 1.37 34.466 0.173 7.19 2.71 13.6
1/21/2021 9:15:00 AM 1.38 34.484 0.172 7.19 2.09 13.6
1/21/2021 9:30:00 AM 1.39 34.502 0.184 7.18 1.87 13.58
1/21/2021 9:45:00 AM 1.42 34.556 0.171 7.18 2.38 13.62
1/21/2021 10:00:00 AM 1.46 34.628 0.182 7.17 4.17 13.64
1/21/2021 10:15:00 AM 1.54 34.772 0.183 7.17 2.79 13.64
1/21/2021 10:30:00 AM 1.55 34.79 0.184 7.16 2.45 13.64
1/21/2021 10:45:00 AM 1.6 34.88 0.184 7.16 2.04 13.67
1/21/2021 11:00:00 AM 1.67 35.006 0.176 7.16 2.17 13.66
1/21/2021 11:15:00 AM 1.71 35.078 0.174 7.17 2.87 13.69
1/21/2021 11:30:00 AM 1.71 35.078 0.175 7.17 2.05 13.7
1/21/2021 11:45:00 AM 1.74 35.132 0.184 7.18 2.33 13.71
1/21/2021 12:00:00 PM 1.78 35.204 0.184 7.18 2.35 13.72
1/21/2021 12:15:00 PM 1.84 35.312 0.181 7.18 2.16 13.74
1/21/2021 12:30:00 PM 1.93 35.474 0.178 7.18 1.96 13.74
1/21/2021 12:45:00 PM 2.02 35.636 0.178 7.16 2.26 13.75
1/21/2021 1:00:00 PM 2.09 35.762 0.18 7.16 2.25 13.76
1/21/2021 1:15:00 PM 2.17 35.906 0.181 7.17 2.31 13.76
1/21/2021 1:30:00 PM 2.22 35.996 0.181 7.17 2.58 13.77
1/21/2021 1:45:00 PM 2.3 36.14 0.182 7.18 2.32 13.77
1/21/2021 2:00:00 PM 2.35 36.23 0.173 7.18 2.07 13.78
1/21/2021 2:15:00 PM 2.4 36.32 0.185 7.19 3.06 13.77
1/21/2021 2:30:00 PM 2.43 36.374 0.182 7.19 2.61 13.78
1/21/2021 2:45:00 PM 2.46 36.428 0.182 7.19 2.15 13.78
1/21/2021 3:00:00 PM 2.49 36.482 0.182 7.18 2.45 13.77
1/21/2021 3:15:00 PM 2.52 36.536 0.185 7.18 2.4 13.78
1/21/2021 3:30:00 PM 2.52 36.536 0.185 7.19 1.99 13.75
1/21/2021 3:45:00 PM 2.53 36.554 0.184 7.2 2.19 13.75
1/21/2021 4:00:00 PM 2.52 36.536 0.183 7.2 2.47 13.75
1/21/2021 4:15:00 PM 2.51 36.518 0.178 7.2 2.43 13.74
1/21/2021 4:30:00 PM 2.48 36.464 0.185 7.2 2.23 13.73
1/21/2021 4:45:00 PM 2.46 36.428 0.185 7.19 2.33 13.75
1/21/2021 5:00:00 PM 2.43 36.374 0.182 7.19 2.18 13.74
1/21/2021 5:15:00 PM 2.41 36.338 0.185 7.19 1.98 13.71
1/21/2021 5:30:00 PM 2.38 36.284 0.185 7.19 2.17 13.73
1/21/2021 5:45:00 PM 2.35 36.23 0.185 7.2 2.2 13.72
1/21/2021 6:00:00 PM 2.33 36.194 0.18 7.19 2.1 13.71
1/21/2021 6:15:00 PM 2.31 36.158 0.186 7.19 2.3 13.73
1/21/2021 6:30:00 PM 2.29 36.122 0.185 7.19 1.97 13.7
1/21/2021 6:45:00 PM 2.27 36.086 0.185 7.19 2.14 13.7
1/21/2021 7:00:00 PM 2.25 36.05 0.185 7.2 3.21 13.69
1/21/2021 7:15:00 PM 2.23 36.014 0.185 7.19 2.21 13.68
1/21/2021 7:30:00 PM 2.22 35.996 0.185 7.18 2.32 13.65
1/21/2021 7:45:00 PM 2.2 35.96 0.185 7.17 2.67 13.64
1/21/2021 8:00:00 PM 2.18 35.924 0.185 7.18 2.35 13.66
1/21/2021 8:15:00 PM 2.16 35.888 0.185 7.17 2.46 13.69
1/21/2021 8:30:00 PM 2.14 35.852 0.174 7.17 2.3 13.64
1/21/2021 8:45:00 PM 2.13 35.834 0.185 7.19 2.01 13.64
1/21/2021 9:00:00 PM 2.12 35.816 0.183 7.19 2.59 13.64
1/21/2021 9:15:00 PM 2.1 35.78 0.164 7.19 2.37 13.65
1/21/2021 9:30:00 PM 2.08 35.744 0.182 7.19 2.08 13.63
1/21/2021 9:45:00 PM 2.06 35.708 0.169 7.18 2.1 13.64
1/21/2021 10:00:00 PM 2.05 35.69 0.174 7.17 1.74 13.63
1/21/2021 10:15:00 PM 2.02 35.636 0.176 7.17 1.95 13.63
1/21/2021 10:30:00 PM 2.01 35.618 0.178 7.17 1.7 13.64
1/21/2021 10:45:00 PM 2 35.6 0.176 7.16 2.19 13.61
1/21/2021 11:00:00 PM 2 35.6 0.185 7.16 2.2 13.64
1/21/2021 11:15:00 PM 1.99 35.582 0.186 7.16 3.05 13.6
1/21/2021 11:30:00 PM 1.98 35.564 0.185 7.16 3.14 13.62
1/21/2021 11:45:00 PM 1.98 35.564 0.185 7.16 3.18 13.61
1/22/2021 12:00:00 AM 1.97 35.546 0.177 7.16 2.1 13.6
1/22/2021 12:15:00 AM 1.96 35.528 0.184 7.16 3.32 13.6
1/22/2021 12:30:00 AM 1.95 35.51 0.185 7.18 2.34 13.59
1/22/2021 12:45:00 AM 1.95 35.51 0.185 7.17 2.59 13.58
1/22/2021 1:00:00 AM 1.94 35.492 0.185 7.18 1.86 13.6
1/22/2021 1:15:00 AM 1.94 35.492 0.186 7.18 2.53 13.59
1/22/2021 1:30:00 AM 1.93 35.474 0.185 7.18 2.48 13.6
1/22/2021 1:45:00 AM 1.93 35.474 0.183 7.18 2.35 13.59
1/22/2021 2:00:00 AM 1.93 35.474 0.169 7.17 2.48 13.59
1/22/2021 2:15:00 AM 1.93 35.474 0.186 7.15 3.17 13.58
1/22/2021 2:30:00 AM 1.93 35.474 0.185 7.16 1.98 13.58
1/22/2021 2:45:00 AM 1.93 35.474 0.186 7.14 2.44 13.57
1/22/2021 3:00:00 AM 1.93 35.474 0.185 7.17 2.26 13.59
1/22/2021 3:15:00 AM 1.92 35.456 0.185 7.17 2.16 13.56
1/22/2021 3:30:00 AM 1.9 35.42 0.185 7.17 3.04 13.57
1/22/2021 3:45:00 AM 1.89 35.402 0.185 7.17 2.49 13.57
1/22/2021 4:00:00 AM 1.88 35.384 0.185 7.17 2.35 13.57
1/22/2021 4:15:00 AM 1.87 35.366 0.185 7.18 2.35 13.58
1/22/2021 4:30:00 AM 1.86 35.348 0.185 7.18 2.09 13.58
1/22/2021 4:45:00 AM 1.85 35.33 0.185 7.18 2.21 13.58
1/22/2021 5:00:00 AM 1.84 35.312 0.185 7.18 2.25 13.56
1/22/2021 5:15:00 AM 1.84 35.312 0.185 7.18 2.6 13.56
1/22/2021 5:30:00 AM 1.83 35.294 0.185 7.19 3 13.56
1/22/2021 5:45:00 AM 1.82 35.276 0.177 7.19 2.34 13.56
1/22/2021 6:00:00 AM 1.81 35.258 0.185 7.19 3.02 13.55
1/22/2021 6:15:00 AM 1.79 35.222 0.185 7.19 2.76 13.53
1/22/2021 6:30:00 AM 1.79 35.222 0.185 7.19 2.6 13.53
1/22/2021 6:45:00 AM 1.78 35.204 0.184 7.18 2.31 13.54
1/22/2021 7:00:00 AM 1.76 35.168 0.185 7.18 2.44 13.5
1/22/2021 7:15:00 AM 1.75 35.15 0.182 7.18 2.8 13.51
1/22/2021 7:30:00 AM 1.74 35.132 0.182 7.18 2.94 13.53
1/22/2021 7:45:00 AM 1.73 35.114 0.173 7.17 2.73 13.51
1/22/2021 8:00:00 AM 1.73 35.114 0.175 7.18 2.52 13.52
1/22/2021 8:15:00 AM 1.73 35.114 0.186 7.18 2.37 13.51
1/22/2021 8:30:00 AM 1.74 35.132 0.186 7.18 2.77 13.5
1/22/2021 8:45:00 AM 1.75 35.15 0.187 7.17 2.53 13.53
1/22/2021 9:00:00 AM 1.76 35.168 0.187 7.18 2.61 13.53
1/22/2021 9:15:00 AM 1.79 35.222 0.171 7.17 2.61 13.54
1/22/2021 9:30:00 AM 1.82 35.276 0.187 7.18 2.48 13.54
1/22/2021 9:45:00 AM 1.86 35.348 0.187 7.17 2.52 13.52
1/22/2021 10:00:00 AM 1.91 35.438 0.187 7.18 2.47 13.53
1/22/2021 10:15:00 AM 2.01 35.618 0.188 7.17 2.83 13.56
1/22/2021 10:30:00 AM 2.07 35.726 0.188 7.17 2.86 13.57
1/22/2021 10:45:00 AM 2.1 35.78 0.188 7.18 2.72 13.57
1/22/2021 11:00:00 AM 2.12 35.816 0.189 7.18 2.79 13.58
1/22/2021 11:15:00 AM 2.15 35.87 0.189 7.19 2.93 13.6
1/22/2021 11:30:00 AM 2.2 35.96 0.189 7.19 2.32 13.6
1/22/2021 11:45:00 AM 2.24 36.032 0.189 7.2 2.96 13.6
1/22/2021 12:00:00 PM 2.28 36.104 0.189 7.2 3.13 13.62
1/22/2021 12:15:00 PM 2.32 36.176 0.19 7.21 2.22 13.62
1/22/2021 12:30:00 PM 2.36 36.248 0.19 7.21 2.39 13.62
1/22/2021 12:45:00 PM 2.4 36.32 0.19 7.21 2.39 13.64
1/22/2021 1:00:00 PM 2.49 36.482 0.19 7.21 2.33 13.65
1/22/2021 1:15:00 PM 2.58 36.644 0.19 7.21 2.29 13.64
1/22/2021 1:30:00 PM 2.67 36.806 0.19 7.21 2.19 13.65
1/22/2021 1:45:00 PM 2.68 36.824 0.19 7.22 2.34 13.64
1/22/2021 2:00:00 PM 2.71 36.878 0.19 7.22 2.41 13.64
1/22/2021 2:15:00 PM 2.73 36.914 0.19 7.23 2.2 13.63
1/22/2021 2:30:00 PM 2.8 37.04 0.19 7.22 2.47 13.64
1/22/2021 2:45:00 PM 2.82 37.076 0.19 7.23 2.35 13.63
1/22/2021 3:00:00 PM 2.83 37.094 0.19 7.23 2.15 13.64
1/22/2021 3:15:00 PM 2.83 37.094 0.19 7.23 2.1 13.62
1/22/2021 3:30:00 PM 2.81 37.058 0.19 7.23 2.26 13.64
1/22/2021 3:45:00 PM 2.83 37.094 0.188 7.23 2.4 13.64
1/22/2021 4:00:00 PM 2.81 37.058 0.189 7.23 2.15 13.65
1/22/2021 4:15:00 PM 2.76 36.968 0.189 7.24 2.8 13.64
1/22/2021 4:30:00 PM 2.75 36.95 0.189 7.23 2.41 13.63
1/22/2021 4:45:00 PM 2.73 36.914 0.189 7.25 2.27 13.62
1/22/2021 5:00:00 PM 2.69 36.842 0.189 7.24 2.2 13.64
1/22/2021 5:15:00 PM 2.68 36.824 0.189 7.24 1.99 13.62
1/22/2021 5:30:00 PM 2.65 36.77 0.189 7.23 2.07 13.59
1/22/2021 5:45:00 PM 2.62 36.716 0.184 7.24 1.84 13.63
1/22/2021 6:00:00 PM 2.6 36.68 0.188 7.23 2.34 13.6
1/22/2021 6:15:00 PM 2.59 36.662 0.188 7.22 2.56 13.61
1/22/2021 6:30:00 PM 2.57 36.626 0.188 7.25 2.93 13.62
1/22/2021 6:45:00 PM 2.56 36.608 0.187 7.23 2.48 13.6
1/22/2021 7:00:00 PM 2.56 36.608 0.187 7.22 3.14 13.58
1/22/2021 7:15:00 PM 2.54 36.572 0.187 7.22 2.18 13.58
1/22/2021 7:30:00 PM 2.52 36.536 0.187 7.23 2.63 13.58
1/22/2021 7:45:00 PM 2.51 36.518 0.187 7.23 1.91 13.59
1/22/2021 8:00:00 PM 2.5 36.5 0.187 7.22 2.54 13.58
1/22/2021 8:15:00 PM 2.48 36.464 0.186 7.22 2.15 13.58
1/22/2021 8:30:00 PM 2.47 36.446 0.186 7.21 2.72 13.57
1/22/2021 8:45:00 PM 2.45 36.41 0.185 7.22 2.07 13.56
1/22/2021 9:00:00 PM 2.44 36.392 0.185 7.21 2.71 13.57
1/22/2021 9:15:00 PM 2.41 36.338 0.185 7.22 2.29 13.57
1/22/2021 9:30:00 PM 2.4 36.32 0.185 7.23 2.38 13.57
1/22/2021 9:45:00 PM 2.38 36.284 0.185 7.23 2.68 13.53
1/22/2021 10:00:00 PM 2.37 36.266 0.185 7.23 2.54 13.57
1/22/2021 10:15:00 PM 2.35 36.23 0.185 7.23 2.49 13.56
1/22/2021 10:30:00 PM 2.32 36.176 0.185 7.24 1.94 13.58
1/22/2021 10:45:00 PM 2.3 36.14 0.185 7.23 2.31 13.56
1/22/2021 11:00:00 PM 2.28 36.104 0.185 7.23 2.84 13.56
1/22/2021 11:15:00 PM 2.25 36.05 0.184 7.22 2.09 13.56
1/22/2021 11:30:00 PM 2.23 36.014 0.184 7.22 2.44 13.58
1/22/2021 11:45:00 PM 2.21 35.978 0.184 7.22 2.21 13.58
1/23/2021 12:00:00 AM 2.19 35.942 0.185 7.21 2.38 13.57
1/23/2021 12:15:00 AM 2.17 35.906 0.185 7.21 1.96 13.57
1/23/2021 12:30:00 AM 2.16 35.888 0.185 7.22 2.88 13.55
1/23/2021 12:45:00 AM 2.14 35.852 0.183 7.22 2.53 13.56
1/23/2021 1:00:00 AM 2.12 35.816 0.183 7.22 2 13.59
1/23/2021 1:15:00 AM 2.11 35.798 0.184 7.22 2.28 13.59
1/23/2021 1:30:00 AM 2.09 35.762 0.182 7.22 2.44 13.58
1/23/2021 1:45:00 AM 2.08 35.744 0.182 7.22 2.27 13.58
1/23/2021 2:00:00 AM 2.05 35.69 0.181 7.22 2.37 13.61
1/23/2021 2:15:00 AM 2.04 35.672 0.182 7.22 2.53 13.59
1/23/2021 2:30:00 AM 2.02 35.636 0.182 7.22 2.08 13.6
1/23/2021 2:45:00 AM 2 35.6 0.184 7.21 2.74 13.61
1/23/2021 3:00:00 AM 1.98 35.564 0.184 7.22 2.74 13.62
1/23/2021 3:15:00 AM 1.96 35.528 0.185 7.21 2.24 13.61
1/23/2021 3:30:00 AM 1.94 35.492 0.185 7.22 2.39 13.6
1/23/2021 3:45:00 AM 1.93 35.474 0.183 7.22 2.25 13.6
1/23/2021 4:00:00 AM 1.91 35.438 0.184 7.22 2.61 13.62
1/23/2021 4:15:00 AM 1.88 35.384 0.184 7.23 2.76 13.61
1/23/2021 4:30:00 AM 1.88 35.384 0.184 7.22 2.77 13.61
1/23/2021 4:45:00 AM 1.85 35.33 0.184 7.22 2.12 13.61
1/23/2021 5:00:00 AM 1.82 35.276 0.184 7.22 2.34 13.6
1/23/2021 5:15:00 AM 1.8 35.24 0.184 7.22 2.41 13.59
1/23/2021 5:30:00 AM 1.78 35.204 0.184 7.22 2.01 13.59
1/23/2021 5:45:00 AM 1.75 35.15 0.184 7.22 1.89 13.6
1/23/2021 6:00:00 AM 1.72 35.096 0.184 7.21 2.61 13.6
1/23/2021 6:15:00 AM 1.69 35.042 0.185 7.21 2.2 13.59
1/23/2021 6:30:00 AM 1.68 35.024 0.184 7.2 2.44 13.61
1/23/2021 6:45:00 AM 1.66 34.988 0.185 7.19 2.24 13.59
1/23/2021 7:00:00 AM 1.66 34.988 0.185 7.19 2.28 13.6
1/23/2021 7:15:00 AM 1.63 34.934 0.185 7.19 2.78 13.56
1/23/2021 7:30:00 AM 1.61 34.898 0.185 7.2 2.12 13.59
1/23/2021 7:45:00 AM 1.59 34.862 0.185 7.21 3.16 13.58
1/23/2021 8:00:00 AM 1.57 34.826 0.185 7.21 2.61 13.57
1/23/2021 8:15:00 AM 1.56 34.808 0.185 7.21 2.15 13.59
1/23/2021 8:30:00 AM 1.54 34.772 0.185 7.2 2.43 13.6
1/23/2021 8:45:00 AM 1.5 34.7 0.185 7.2 2.43 13.61
1/23/2021 9:00:00 AM 1.48 34.664 0.185 7.2 2.72 13.62
1/23/2021 9:15:00 AM 1.49 34.682 0.185 7.2 2.01 13.62
1/23/2021 9:30:00 AM 1.48 34.664 0.185 7.21 1.82 13.64
1/23/2021 9:45:00 AM 1.5 34.7 0.185 7.2 2.52 13.64
1/23/2021 10:00:00 AM 1.5 34.7 0.185 7.21 2.17 13.66
1/23/2021 10:15:00 AM 1.49 34.682 0.186 7.2 1.92 13.68
1/23/2021 10:30:00 AM 1.49 34.682 0.186 7.21 2.28 13.68
1/23/2021 10:45:00 AM 1.5 34.7 0.185 7.22 2.09 13.73
1/23/2021 11:00:00 AM 1.5 34.7 0.186 7.21 2.36 13.72
1/23/2021 11:15:00 AM 1.5 34.7 0.186 7.2 2.81 13.74
1/23/2021 11:30:00 AM 1.53 34.754 0.186 7.21 2.51 13.77
1/23/2021 11:45:00 AM 1.53 34.754 0.186 7.21 2.16 13.78
1/23/2021 12:00:00 PM 1.54 34.772 0.186 7.22 2.31 13.8
1/23/2021 12:15:00 PM 1.53 34.754 0.186 7.22 2.7 13.79
1/23/2021 12:30:00 PM 1.54 34.772 0.186 7.22 2.49 13.82
1/23/2021 12:45:00 PM 1.54 34.772 0.186 7.22 2.58 13.85
1/23/2021 1:00:00 PM 1.54 34.772 0.186 7.22 1.89 13.86
1/23/2021 1:15:00 PM 1.56 34.808 0.186 7.21 2.38 13.88
1/23/2021 1:30:00 PM 1.59 34.862 0.186 7.22 2.36 13.9
1/23/2021 1:45:00 PM 1.61 34.898 0.186 7.21 1.8 13.89
1/23/2021 2:00:00 PM 1.66 34.988 0.186 7.21 2.03 13.93
1/23/2021 2:15:00 PM 1.7 35.06 0.186 7.22 2.41 13.94
1/23/2021 2:30:00 PM 1.71 35.078 0.186 7.23 2.16 13.95
1/23/2021 2:45:00 PM 1.71 35.078 0.186 7.23 2.16 13.96
1/23/2021 3:00:00 PM 1.7 35.06 0.186 7.23 2.88 13.95
1/23/2021 3:15:00 PM 1.69 35.042 0.186 7.23 3.29 13.98
1/23/2021 3:30:00 PM 1.7 35.06 0.186 7.24 2.8 13.99
1/23/2021 3:45:00 PM 1.73 35.114 0.186 7.24 2.81 14
1/23/2021 4:00:00 PM 1.76 35.168 0.186 7.23 2.3 14.01
1/23/2021 4:15:00 PM 1.78 35.204 0.186 7.23 2.4 14.02
1/23/2021 4:30:00 PM 1.78 35.204 0.186 7.23 2.21 14.01
1/23/2021 4:45:00 PM 1.8 35.24 0.186 7.23 2.11 13.99
1/23/2021 5:00:00 PM 1.83 35.294 0.187 7.25 2.33 14
1/23/2021 5:15:00 PM 1.81 35.258 0.187 7.24 2.3 14
1/23/2021 5:30:00 PM 1.8 35.24 0.187 7.24 2.49 13.99
1/23/2021 5:45:00 PM 1.79 35.222 0.187 7.25 2.83 14
1/23/2021 6:00:00 PM 1.76 35.168 0.187 7.26 2.18 14.01
1/23/2021 6:15:00 PM 1.72 35.096 0.187 7.25 2.84 14
1/23/2021 6:30:00 PM 1.69 35.042 0.188 7.26 2.87 14.01
1/23/2021 6:45:00 PM 1.65 34.97 0.188 7.24 2.97 14.01
1/23/2021 7:00:00 PM 1.62 34.916 0.188 7.24 2.95 14.01
1/23/2021 7:15:00 PM 1.59 34.862 0.188 7.24 3.02 14.02
1/23/2021 7:30:00 PM 1.56 34.808 0.188 7.24 2.65 14.02
1/23/2021 7:45:00 PM 1.52 34.736 0.188 7.24 3.29 14.01
1/23/2021 8:00:00 PM 1.49 34.682 0.187 7.24 3.33 14.02
1/23/2021 8:15:00 PM 1.45 34.61 0.188 7.24 3.68 14.01
1/23/2021 8:30:00 PM 1.4 34.52 0.188 7.24 3.49 14.02
1/23/2021 8:45:00 PM 1.39 34.502 0.188 7.23 3.39 14.04
1/23/2021 9:00:00 PM 1.35 34.43 0.188 7.22 3.63 14.04
1/23/2021 9:15:00 PM 1.32 34.376 0.188 7.24 3.16 14.05
1/23/2021 9:30:00 PM 1.29 34.322 0.188 7.23 2.92 14.07
1/23/2021 9:45:00 PM 1.27 34.286 0.188 7.23 2.46 14.05
1/23/2021 10:00:00 PM 1.24 34.232 0.188 7.23 3.9 14.08
1/23/2021 10:15:00 PM 1.2 34.16 0.188 7.23 3.89 14.08
1/23/2021 10:30:00 PM 1.16 34.088 0.188 7.23 4.07 14.08
1/23/2021 10:45:00 PM 1.11 33.998 0.188 7.23 4.63 14.1
1/23/2021 11:00:00 PM 1.06 33.908 0.188 7.23 3.66 14.11
1/23/2021 11:15:00 PM 1.03 33.854 0.187 7.23 3.66 14.1
1/23/2021 11:30:00 PM 0.97 33.746 0.187 7.23 3.58 14.12
1/23/2021 11:45:00 PM 0.94 33.692 0.187 7.22 3.61 14.15
1/24/2021 12:00:00 AM 0.9 33.62 0.187 7.23 4.31 14.17
1/24/2021 12:15:00 AM 0.86 33.548 0.188 7.23 3.71 14.18
1/24/2021 12:30:00 AM 0.82 33.476 0.188 7.22 4.24 14.19
1/24/2021 12:45:00 AM 0.78 33.404 0.188 7.22 4.02 14.19
1/24/2021 1:00:00 AM 0.74 33.332 0.187 7.22 3.18 14.22
1/24/2021 1:15:00 AM 0.71 33.278 0.188 7.22 3.76 14.22
1/24/2021 1:30:00 AM 0.67 33.206 0.188 7.22 4.08 14.25
1/24/2021 1:45:00 AM 0.64 33.152 0.188 7.21 2.65 14.26
1/24/2021 2:00:00 AM 0.61 33.098 0.188 7.21 4.24 14.26
1/24/2021 2:15:00 AM 0.59 33.062 0.187 7.22 2.91 14.26
1/24/2021 2:30:00 AM 0.56 33.008 0.187 7.21 5.23 14.27
1/24/2021 2:45:00 AM 0.53 32.954 0.188 7.21 4.2 14.29
1/24/2021 3:00:00 AM 0.51 32.918 0.188 7.21 2.78 14.3
1/24/2021 3:15:00 AM 0.48 32.864 0.188 7.2 3.45 14.31
1/24/2021 3:30:00 AM 0.45 32.81 0.187 7.2 3.8 14.3
1/24/2021 3:45:00 AM 0.43 32.774 0.188 7.21 2.83 14.32
1/24/2021 4:00:00 AM 0.39 32.702 0.188 7.22 3.44 14.34
1/24/2021 4:15:00 AM 0.36 32.648 0.188 7.21 3.09 14.33
1/24/2021 4:30:00 AM 0.33 32.594 0.188 7.21 3.88 14.35
1/24/2021 4:45:00 AM 0.3 32.54 0.188 7.21 3.64 14.36
1/24/2021 5:00:00 AM 0.27 32.486 0.188 7.21 3.68 14.38
1/24/2021 5:15:00 AM 0.25 32.45 0.188 7.22 4.27 14.36
1/24/2021 5:30:00 AM 0.22 32.396 0.188 7.21 4.24 14.36
1/24/2021 5:45:00 AM 0.2 32.36 0.188 7.22 3.62 14.37
1/24/2021 6:00:00 AM 0.18 32.324 0.188 7.21 2.28 14.37
1/24/2021 6:15:00 AM 0.16 32.288 0.188 7.22 4.03 14.38
1/24/2021 6:30:00 AM 0.13 32.234 0.188 7.21 4.19 14.39
1/24/2021 6:45:00 AM 0.12 32.216 0.188 7.21 4.81 14.39
1/24/2021 7:00:00 AM 0.09 32.162 0.188 7.21 3.21 14.41
1/24/2021 7:15:00 AM 0.07 32.126 0.189 7.21 4.47 14.38
1/24/2021 7:30:00 AM 0.05 32.09 0.189 7.21 4.58 14.38
1/24/2021 7:45:00 AM 0.03 32.054 0.189 7.21 2.74 14.43
1/24/2021 8:00:00 AM 0.01 32.018 0.189 7.21 4.19 14.43
1/24/2021 8:15:00 AM 0 32 0.189 7.22 4.33 14.42
1/24/2021 8:30:00 AM 0 32 0.189 7.21 4.1 14.43
1/24/2021 8:45:00 AM -0.01 31.982 0.189 7.22 4.86 14.46
1/24/2021 9:00:00 AM 0 32 0.189 7.21 4.47 14.48
1/24/2021 9:15:00 AM 0 32 0.189 7.23 2.53 14.46
1/24/2021 9:30:00 AM 0.02 32.036 0.189 7.22 3.8 14.51
1/24/2021 9:45:00 AM 0.07 32.126 0.189 7.21 2.41 14.52
1/24/2021 10:00:00 AM -100000 -179968 -100000 -100000 -100000 -100000
1/24/2021 10:15:00 AM -100000 -179968 -100000 -100000 -100000 -100000
1/24/2021 10:30:00 AM -100000 -179968 -100000 -100000 -100000 -100000
1/24/2021 10:45:00 AM -100000 -179968 -100000 -100000 -100000 -100000
1/24/2021 11:00:00 AM -100000 -179968 -100000 -100000 -100000 -100000
1/24/2021 11:15:00 AM -100000 -179968 -100000 -100000 -100000 -100000
1/24/2021 11:30:00 AM -100000 -179968 -100000 -100000 -100000 -100000
1/24/2021 11:45:00 AM -100000 -179968 -100000 -100000 -100000 -100000
1/24/2021 12:00:00 PM -100000 -179968 -100000 -100000 -100000 -100000
1/24/2021 12:15:00 PM -100000 -179968 -100000 -100000 -100000 -100000
1/24/2021 12:30:00 PM -100000 -179968 -100000 -100000 -100000 -100000
1/24/2021 12:45:00 PM -100000 -179968 -100000 -100000 -100000 -100000
1/24/2021 1:00:00 PM 0.94 33.692 0.188 7.04 4.09 14.62
1/24/2021 1:15:00 PM 1.01 33.818 0.188 7.06 4.44 14.63
1/24/2021 1:30:00 PM 1.03 33.854 0.188 7.11 5.81 14.63
1/24/2021 1:45:00 PM 1 33.8 0.189 7.17 4.74 14.63
1/24/2021 2:00:00 PM 1.13 34.034 0.188 7.17 5.33 14.63
1/24/2021 2:15:00 PM 1.14 34.052 0.188 7.18 3.51 14.64
1/24/2021 2:30:00 PM 1.16 34.088 0.188 7.21 4.51 14.64
1/24/2021 2:45:00 PM 1.21 34.178 0.188 7.2 4.85 14.64
1/24/2021 3:00:00 PM 1.21 34.178 0.188 7.22 3.73 14.65
1/24/2021 3:15:00 PM 1.21 34.178 0.188 7.22 4.53 14.63
1/24/2021 3:30:00 PM 1.22 34.196 0.189 7.23 3.41 14.62
1/24/2021 3:45:00 PM 1.22 34.196 0.189 7.25 2.21 14.64
1/24/2021 4:00:00 PM 1.21 34.178 0.189 7.25 4.06 14.65
1/24/2021 4:15:00 PM 1.18 34.124 0.189 7.27 2.96 14.64
1/24/2021 4:30:00 PM 1.15 34.07 0.189 7.27 3.91 14.64
1/24/2021 4:45:00 PM 1.11 33.998 0.19 7.26 6.09 14.66
1/24/2021 5:00:00 PM 1.07 33.926 0.19 7.24 2.87 14.62
1/24/2021 5:15:00 PM 1.04 33.872 0.191 7.25 6.55 14.63
1/24/2021 5:30:00 PM 1.01 33.818 0.19 7.25 5.1 14.64
1/24/2021 5:45:00 PM 0.97 33.746 0.189 7.23 3.76 14.61
1/24/2021 6:00:00 PM 0.94 33.692 0.19 7.25 3.03 14.63
1/24/2021 6:15:00 PM 0.92 33.656 0.189 7.2 5.9 14.62
1/24/2021 6:30:00 PM 0.88 33.584 0.191 7.25 4.72 14.62
1/24/2021 6:45:00 PM 0.86 33.548 0.19 7.27 4.68 14.63
1/24/2021 7:00:00 PM 0.84 33.512 0.19 7.27 4.69 14.6
1/24/2021 7:15:00 PM 0.83 33.494 0.191 7.28 2.3 14.6
1/24/2021 7:30:00 PM 0.81 33.458 0.191 7.27 2.84 14.6
1/24/2021 7:45:00 PM 0.8 33.44 0.191 7.26 3.12 14.58
1/24/2021 8:00:00 PM 0.79 33.422 0.19 7.26 2.82 14.58
1/24/2021 8:15:00 PM 0.78 33.404 0.19 7.26 2.67 14.54
1/24/2021 8:30:00 PM 0.78 33.404 0.19 7.26 2.52 14.56
1/24/2021 8:45:00 PM 0.77 33.386 0.19 7.25 2.4 14.54
1/24/2021 9:00:00 PM 0.77 33.386 0.189 7.25 2.42 14.54
1/24/2021 9:15:00 PM 0.76 33.368 0.189 7.25 2.46 14.52
1/24/2021 9:30:00 PM 0.76 33.368 0.189 7.24 2.32 14.52
1/24/2021 9:45:00 PM 0.75 33.35 0.188 7.25 2.42 14.52
1/24/2021 10:00:00 PM 0.75 33.35 0.187 7.25 2.34 14.5
1/24/2021 10:15:00 PM 0.75 33.35 0.188 7.26 2.54 14.5
1/24/2021 10:30:00 PM 0.75 33.35 0.187 7.25 2.56 14.48
1/24/2021 10:45:00 PM 0.74 33.332 0.187 7.26 2.48 14.48
1/24/2021 11:00:00 PM 0.74 33.332 0.186 7.25 3.5 14.49
1/24/2021 11:15:00 PM 0.74 33.332 0.185 7.25 2.06 14.49
1/24/2021 11:30:00 PM 0.73 33.314 0.185 7.25 2.63 14.49
1/24/2021 11:45:00 PM 0.73 33.314 0.184 7.25 2.65 14.47
1/25/2021 12:00:00 AM 0.72 33.296 0.183 7.25 2.67 14.49
1/25/2021 12:15:00 AM 0.72 33.296 0.183 7.22 2.5 14.46
1/25/2021 12:30:00 AM 0.72 33.296 0.182 7.18 2.51 14.47
1/25/2021 12:45:00 AM 0.71 33.278 0.183 7.18 1.94 14.47
1/25/2021 1:00:00 AM 0.71 33.278 0.183 7.17 2.32 14.47
1/25/2021 1:15:00 AM 0.7 33.26 0.182 7.11 2.36 14.46
1/25/2021 1:30:00 AM 0.7 33.26 0.182 7.16 2.2 14.44
1/25/2021 1:45:00 AM 0.7 33.26 0.181 7.14 2.07 14.44
1/25/2021 2:00:00 AM 0.69 33.242 0.181 7.13 2.6 14.45
1/25/2021 2:15:00 AM 0.69 33.242 0.181 7.14 2.46 14.46
1/25/2021 2:30:00 AM 0.69 33.242 0.181 7.1 1.98 14.43
1/25/2021 2:45:00 AM 0.69 33.242 0.181 7.19 1.85 14.44
1/25/2021 3:00:00 AM 0.68 33.224 0.181 7.22 2.51 14.41
1/25/2021 3:15:00 AM 0.68 33.224 0.181 7.23 2.29 14.44
1/25/2021 3:30:00 AM 0.68 33.224 0.181 7.23 2.33 14.42
1/25/2021 3:45:00 AM 0.68 33.224 0.181 7.24 1.8 14.42
1/25/2021 4:00:00 AM 0.68 33.224 0.181 7.24 2.03 14.42
1/25/2021 4:15:00 AM 0.68 33.224 0.181 7.24 1.81 14.41
1/25/2021 4:30:00 AM 0.67 33.206 0.181 7.24 2.82 14.41
1/25/2021 4:45:00 AM 0.68 33.224 0.182 7.23 2.6 14.4
1/25/2021 5:00:00 AM 0.67 33.206 0.182 7.23 2.35 14.4
1/25/2021 5:15:00 AM 0.67 33.206 0.182 7.22 2.38 14.38
1/25/2021 5:30:00 AM 0.67 33.206 0.182 7.22 2.29 14.4
1/25/2021 5:45:00 AM 0.67 33.206 0.182 7.22 1.88 14.39
1/25/2021 6:00:00 AM 0.67 33.206 0.182 7.21 2.04 14.38
1/25/2021 6:15:00 AM 0.67 33.206 0.182 7.21 2.16 14.39
1/25/2021 6:30:00 AM 0.67 33.206 0.183 7.21 2.21 14.37
1/25/2021 6:45:00 AM 0.67 33.206 0.183 7.22 2.2 14.39
1/25/2021 7:00:00 AM 0.68 33.224 0.184 7.22 1.93 14.35
1/25/2021 7:15:00 AM 0.68 33.224 0.184 7.23 2.13 14.37
1/25/2021 7:30:00 AM 0.68 33.224 0.185 7.22 2.48 14.35
1/25/2021 7:45:00 AM 0.69 33.242 0.185 7.23 2.03 14.34
1/25/2021 8:00:00 AM 0.7 33.26 0.186 7.24 2.03 14.35
1/25/2021 8:15:00 AM 0.7 33.26 0.187 7.24 2.25 14.34
1/25/2021 8:30:00 AM 0.72 33.296 0.188 7.23 2.19 14.33
1/25/2021 8:45:00 AM 0.73 33.314 0.189 7.22 1.76 14.35
1/25/2021 9:00:00 AM 0.74 33.332 0.191 7.23 1.9 14.33
1/25/2021 9:15:00 AM 0.76 33.368 0.192 7.23 2.09 14.34
1/25/2021 9:30:00 AM 0.77 33.386 0.193 7.24 2.04 14.33
1/25/2021 9:45:00 AM 0.79 33.422 0.195 7.24 1.84 14.36
1/25/2021 10:00:00 AM 0.8 33.44 0.196 7.25 1.93 14.35
1/25/2021 10:15:00 AM 0.83 33.494 0.196 7.25 1.91 14.33
1/25/2021 10:30:00 AM 0.86 33.548 0.197 7.25 2.06 14.36
1/25/2021 10:45:00 AM 0.89 33.602 0.197 7.25 2.22 14.35
1/25/2021 11:00:00 AM 0.92 33.656 0.198 7.25 2.07 14.36
1/25/2021 11:15:00 AM 0.97 33.746 0.198 7.26 4.06 14.38
1/25/2021 11:30:00 AM 1.01 33.818 0.198 7.25 2.22 14.39
1/25/2021 11:45:00 AM 1.05 33.89 0.198 7.24 2.71 14.41
1/25/2021 12:00:00 PM 1.09 33.962 0.198 7.24 2.13 14.41
1/25/2021 12:15:00 PM 1.12 34.016 0.198 7.26 2.05 14.42
1/25/2021 12:30:00 PM 1.16 34.088 0.198 7.27 2.04 14.43
1/25/2021 12:45:00 PM 1.19 34.142 0.198 7.26 2.51 14.44
1/25/2021 1:00:00 PM 1.24 34.232 0.198 7.27 2.19 14.43
1/25/2021 1:15:00 PM 1.28 34.304 0.198 7.26 2.13 14.42
1/25/2021 1:30:00 PM 1.32 34.376 0.198 7.26 1.93 14.46
1/25/2021 1:45:00 PM 1.35 34.43 0.198 7.27 2.02 14.45
1/25/2021 2:00:00 PM 1.38 34.484 0.198 7.28 2.07 14.47
1/25/2021 2:15:00 PM 1.4 34.52 0.197 7.28 1.89 14.44
1/25/2021 2:30:00 PM 1.43 34.574 0.198 7.28 2.31 14.47
1/25/2021 2:45:00 PM 1.45 34.61 0.197 7.28 2.29 14.45
1/25/2021 3:00:00 PM 1.46 34.628 0.197 7.28 1.84 14.46
1/25/2021 3:15:00 PM 1.48 34.664 0.198 7.29 2.4 14.46
1/25/2021 3:30:00 PM 1.49 34.682 0.197 7.29 1.99 14.47
1/25/2021 3:45:00 PM 1.49 34.682 0.197 7.29 2.14 14.46
1/25/2021 4:00:00 PM 1.49 34.682 0.197 7.28 2.32 14.47
1/25/2021 4:15:00 PM 1.49 34.682 0.197 7.29 1.77 14.44
1/25/2021 4:30:00 PM 1.48 34.664 0.197 7.29 2.23 14.45
1/25/2021 4:45:00 PM 1.49 34.682 0.196 7.29 2.08 14.46
1/25/2021 5:00:00 PM 1.5 34.7 0.196 7.3 2.12 14.43
1/25/2021 5:15:00 PM 1.48 34.664 0.196 7.29 2.19 14.39
1/25/2021 5:30:00 PM 1.47 34.646 0.197 7.29 2.37 14.43
1/25/2021 5:45:00 PM 1.46 34.628 0.198 7.3 2.21 14.4
1/25/2021 6:00:00 PM 1.46 34.628 0.198 7.27 2.68 14.4
1/25/2021 6:15:00 PM 1.45 34.61 0.197 7.26 2.63 14.38
1/25/2021 6:30:00 PM 1.45 34.61 0.197 7.25 2.54 14.37
1/25/2021 6:45:00 PM 1.44 34.592 0.197 7.25 2.4 14.35
1/25/2021 7:00:00 PM 1.44 34.592 0.197 7.21 2.48 14.31
1/25/2021 7:15:00 PM 1.43 34.574 0.196 7.18 2.66 14.34
1/25/2021 7:30:00 PM 1.42 34.556 0.196 7.15 3.12 14.34
1/25/2021 7:45:00 PM 1.42 34.556 0.196 7.18 2.82 14.29
1/25/2021 8:00:00 PM 1.42 34.556 0.196 7.18 2.33 14.28
1/25/2021 8:15:00 PM 1.41 34.538 0.196 7.15 2.1 14.28
1/25/2021 8:30:00 PM 1.41 34.538 0.195 7.19 0 14.3
1/25/2021 8:45:00 PM 1.41 34.538 0.195 7.14 1.81 14.27
1/25/2021 9:00:00 PM 1.41 34.538 0.195 7.14 1.81 14.27
1/25/2021 9:15:00 PM 1.41 34.538 0.195 7.14 1.81 14.27
1/25/2021 9:30:00 PM 1.41 34.538 0.195 7.14 1.81 14.27
1/25/2021 9:45:00 PM 1.41 34.538 0.195 7.14 1.81 14.27
1/25/2021 10:00:00 PM 1.41 34.538 0.195 7.14 1.81 14.27
1/25/2021 10:15:00 PM -100000 -179968 -100000 -100000 -100000 -100000
1/25/2021 10:30:00 PM -100000 -179968 -100000 -100000 -100000 -100000
1/25/2021 10:45:00 PM -100000 -179968 -100000 -100000 -100000 -100000
1/25/2021 11:00:00 PM -100000 -179968 -100000 -100000 -100000 -100000
1/25/2021 11:15:00 PM -100000 -179968 -100000 -100000 -100000 -100000
1/25/2021 11:30:00 PM -100000 -179968 -100000 -100000 -100000 -100000
1/25/2021 11:45:00 PM -100000 -179968 -100000 -100000 -100000 -100000
1/26/2021 12:00:00 AM -100000 -179968 -100000 -100000 -100000 -100000
1/26/2021 12:15:00 AM -100000 -179968 -100000 -100000 -100000 -100000
1/26/2021 12:30:00 AM -100000 -179968 -100000 -100000 -100000 -100000
1/26/2021 12:45:00 AM -100000 -179968 -100000 -100000 -100000 -100000
1/26/2021 1:00:00 AM -100000 -179968 -100000 -100000 -100000 -100000
1/26/2021 1:15:00 AM -100000 -179968 -100000 -100000 -100000 -100000
1/26/2021 1:30:00 AM -100000 -179968 -100000 -100000 -100000 -100000
1/26/2021 1:45:00 AM -100000 -179968 -100000 -100000 -100000 -100000
1/26/2021 2:00:00 AM -100000 -179968 -100000 -100000 -100000 -100000
1/26/2021 2:15:00 AM -100000 -179968 -100000 -100000 -100000 -100000
1/26/2021 2:30:00 AM -100000 -179968 -100000 -100000 -100000 -100000
1/26/2021 2:45:00 AM -100000 -179968 -100000 -100000 -100000 -100000
1/26/2021 3:00:00 AM -100000 -179968 -100000 -100000 -100000 -100000
1/26/2021 3:15:00 AM -100000 -179968 -100000 -100000 -100000 -100000
1/26/2021 3:30:00 AM -100000 -179968 -100000 -100000 -100000 -100000
1/26/2021 3:45:00 AM -100000 -179968 -100000 -100000 -100000 -100000
1/26/2021 4:00:00 AM -100000 -179968 -100000 -100000 -100000 -100000
1/26/2021 4:15:00 AM -100000 -179968 -100000 -100000 -100000 -100000
1/26/2021 4:30:00 AM -100000 -179968 -100000 -100000 -100000 -100000
1/26/2021 4:45:00 AM -100000 -179968 -100000 -100000 -100000 -100000
1/26/2021 5:00:00 AM -100000 -179968 -100000 -100000 -100000 -100000
1/26/2021 5:15:00 AM -100000 -179968 -100000 -100000 -100000 -100000
1/26/2021 5:30:00 AM -100000 -179968 -100000 -100000 -100000 -100000
1/26/2021 5:45:00 AM -100000 -179968 -100000 -100000 -100000 -100000
1/26/2021 6:00:00 AM -100000 -179968 -100000 -100000 -100000 -100000
1/26/2021 6:15:00 AM -100000 -179968 -100000 -100000 -100000 -100000
1/26/2021 6:30:00 AM -100000 -179968 -100000 -100000 -100000 -100000
1/26/2021 6:45:00 AM -100000 -179968 -100000 -100000 -100000 -100000
1/26/2021 7:00:00 AM -100000 -179968 -100000 -100000 -100000 -100000
1/26/2021 7:15:00 AM -100000 -179968 -100000 -100000 -100000 -100000
1/26/2021 7:30:00 AM -100000 -179968 -100000 -100000 -100000 -100000
1/26/2021 7:45:00 AM -100000 -179968 -100000 -100000 -100000 -100000
1/26/2021 8:00:00 AM -100000 -179968 -100000 -100000 -100000 -100000
1/26/2021 8:15:00 AM -100000 -179968 -100000 -100000 -100000 -100000
1/26/2021 8:30:00 AM -100000 -179968 -100000 -100000 -100000 -100000
1/26/2021 8:45:00 AM -100000 -179968 -100000 -100000 -100000 -100000
1/26/2021 9:00:00 AM -100000 -179968 -100000 -100000 -100000 -100000
1/26/2021 9:15:00 AM -100000 -179968 -100000 -100000 -100000 -100000
1/26/2021 9:30:00 AM -100000 -179968 -100000 -100000 -100000 -100000
1/26/2021 9:45:00 AM -100000 -179968 -100000 -100000 -100000 -100000
1/26/2021 10:00:00 AM -100000 -179968 -100000 -100000 -100000 -100000
1/26/2021 10:15:00 AM -100000 -179968 -100000 -100000 -100000 -100000
1/26/2021 10:30:00 AM -100000 -179968 -100000 -100000 -100000 -100000
1/26/2021 10:45:00 AM -100000 -179968 -100000 -100000 -100000 -100000
1/26/2021 11:00:00 AM -100000 -179968 -100000 -100000 -100000 -100000
1/26/2021 11:15:00 AM -100000 -179968 -100000 -100000 -100000 -100000
1/26/2021 11:30:00 AM -100000 -179968 -100000 -100000 -100000 -100000
1/26/2021 11:45:00 AM -100000 -179968 -100000 -100000 -100000 -100000
1/26/2021 12:00:00 PM -100000 -179968 -100000 -100000 -100000 -100000
1/26/2021 12:15:00 PM -100000 -179968 -100000 -100000 -100000 -100000
1/26/2021 12:30:00 PM -100000 -179968 -100000 -100000 -100000 -100000
1/26/2021 12:45:00 PM -100000 -179968 -100000 -100000 -100000 -100000
1/26/2021 1:00:00 PM -100000 -179968 -100000 -100000 -100000 -100000
1/26/2021 1:15:00 PM -100000 -179968 -100000 -100000 -100000 -100000
1/26/2021 1:30:00 PM -100000 -179968 -100000 -100000 -100000 -100000
1/26/2021 1:45:00 PM -100000 -179968 -100000 -100000 -100000 -100000
1/26/2021 2:00:00 PM -100000 -179968 -100000 -100000 -100000 -100000
1/26/2021 2:15:00 PM -100000 -179968 -100000 -100000 -100000 -100000
1/26/2021 2:30:00 PM -100000 -179968 -100000 -100000 -100000 -100000
1/26/2021 2:45:00 PM -100000 -179968 -100000 -100000 -100000 -100000
1/26/2021 3:00:00 PM -100000 -179968 -100000 -100000 -100000 -100000
1/26/2021 3:15:00 PM -100000 -179968 -100000 -100000 -100000 -100000
1/26/2021 3:30:00 PM -100000 -179968 -100000 -100000 -100000 -100000
1/26/2021 3:45:00 PM -100000 -179968 -100000 -100000 -100000 -100000
1/26/2021 4:00:00 PM -100000 -179968 -100000 -100000 -100000 -100000
1/26/2021 4:15:00 PM -100000 -179968 -100000 -100000 -100000 -100000
1/26/2021 4:30:00 PM -100000 -179968 -100000 -100000 -100000 -100000
1/26/2021 4:45:00 PM -100000 -179968 -100000 -100000 -100000 -100000
1/26/2021 5:00:00 PM -100000 -179968 -100000 -100000 -100000 -100000
1/26/2021 5:15:00 PM -100000 -179968 -100000 -100000 -100000 -100000
1/26/2021 5:30:00 PM -100000 -179968 -100000 -100000 -100000 -100000
1/26/2021 5:45:00 PM -100000 -179968 -100000 -100000 -100000 -100000
1/26/2021 6:00:00 PM -100000 -179968 -100000 -100000 -100000 -100000
1/26/2021 6:15:00 PM -100000 -179968 -100000 -100000 -100000 -100000
1/26/2021 6:30:00 PM -100000 -179968 -100000 -100000 -100000 -100000
1/26/2021 6:45:00 PM -100000 -179968 -100000 -100000 -100000 -100000
1/26/2021 7:00:00 PM -100000 -179968 -100000 -100000 -100000 -100000
1/26/2021 7:15:00 PM -100000 -179968 -100000 -100000 -100000 -100000
1/26/2021 7:30:00 PM -100000 -179968 -100000 -100000 -100000 -100000
1/26/2021 7:45:00 PM -100000 -179968 -100000 -100000 -100000 -100000
1/26/2021 8:00:00 PM -100000 -179968 -100000 -100000 -100000 -100000
1/26/2021 8:15:00 PM -100000 -179968 -100000 -100000 -100000 -100000
1/26/2021 8:30:00 PM -100000 -179968 -100000 -100000 -100000 -100000
1/26/2021 8:45:00 PM -100000 -179968 -100000 -100000 -100000 -100000
1/26/2021 9:00:00 PM -100000 -179968 -100000 -100000 -100000 -100000
1/26/2021 9:15:00 PM -100000 -179968 -100000 -100000 -100000 -100000
1/26/2021 9:30:00 PM -100000 -179968 -100000 -100000 -100000 -100000
1/26/2021 9:45:00 PM -100000 -179968 -100000 -100000 -100000 -100000
1/26/2021 10:00:00 PM -100000 -179968 -100000 -100000 -100000 -100000
1/26/2021 10:15:00 PM -100000 -179968 -100000 -100000 -100000 -100000
1/26/2021 10:30:00 PM -100000 -179968 -100000 -100000 -100000 -100000
1/26/2021 10:45:00 PM -100000 -179968 -100000 -100000 -100000 -100000
1/26/2021 11:00:00 PM -100000 -179968 -100000 -100000 -100000 -100000
1/26/2021 11:15:00 PM -100000 -179968 -100000 -100000 -100000 -100000
1/26/2021 11:30:00 PM -100000 -179968 -100000 -100000 -100000 -100000
1/26/2021 11:45:00 PM -100000 -179968 -100000 -100000 -100000 -100000
1/27/2021 12:00:00 AM -100000 -179968 -100000 -100000 -100000 -100000
1/27/2021 12:15:00 AM -100000 -179968 -100000 -100000 -100000 -100000
1/27/2021 12:30:00 AM -100000 -179968 -100000 -100000 -100000 -100000
1/27/2021 12:45:00 AM -100000 -179968 -100000 -100000 -100000 -100000
1/27/2021 1:00:00 AM -100000 -179968 -100000 -100000 -100000 -100000
1/27/2021 1:15:00 AM -100000 -179968 -100000 -100000 -100000 -100000
1/27/2021 1:30:00 AM -100000 -179968 -100000 -100000 -100000 -100000
1/27/2021 1:45:00 AM -100000 -179968 -100000 -100000 -100000 -100000
1/27/2021 2:00:00 AM -100000 -179968 -100000 -100000 -100000 -100000
1/27/2021 2:15:00 AM -100000 -179968 -100000 -100000 -100000 -100000
1/27/2021 2:30:00 AM -100000 -179968 -100000 -100000 -100000 -100000
1/27/2021 2:45:00 AM -100000 -179968 -100000 -100000 -100000 -100000
1/27/2021 3:00:00 AM -100000 -179968 -100000 -100000 -100000 -100000
1/27/2021 3:15:00 AM -100000 -179968 -100000 -100000 -100000 -100000
1/27/2021 3:30:00 AM -100000 -179968 -100000 -100000 -100000 -100000
1/27/2021 3:45:00 AM -100000 -179968 -100000 -100000 -100000 -100000
1/27/2021 4:00:00 AM -100000 -179968 -100000 -100000 -100000 -100000
1/27/2021 4:15:00 AM -100000 -179968 -100000 -100000 -100000 -100000
1/27/2021 4:30:00 AM -100000 -179968 -100000 -100000 -100000 -100000
1/27/2021 4:45:00 AM -100000 -179968 -100000 -100000 -100000 -100000
1/27/2021 5:00:00 AM -100000 -179968 -100000 -100000 -100000 -100000
1/27/2021 5:15:00 AM -100000 -179968 -100000 -100000 -100000 -100000
1/27/2021 5:30:00 AM -100000 -179968 -100000 -100000 -100000 -100000
1/27/2021 5:45:00 AM -100000 -179968 -100000 -100000 -100000 -100000
1/27/2021 6:00:00 AM -100000 -179968 -100000 -100000 -100000 -100000
1/27/2021 6:15:00 AM -100000 -179968 -100000 -100000 -100000 -100000
1/27/2021 6:30:00 AM -100000 -179968 -100000 -100000 -100000 -100000
1/27/2021 6:45:00 AM -100000 -179968 -100000 -100000 -100000 -100000
1/27/2021 7:00:00 AM -100000 -179968 -100000 -100000 -100000 -100000
1/27/2021 7:15:00 AM -100000 -179968 -100000 -100000 -100000 -100000
1/27/2021 7:30:00 AM -100000 -179968 -100000 -100000 -100000 -100000
1/27/2021 7:45:00 AM -100000 -179968 -100000 -100000 -100000 -100000
1/27/2021 8:00:00 AM -100000 -179968 -100000 -100000 -100000 -100000
1/27/2021 8:15:00 AM -100000 -179968 -100000 -100000 -100000 -100000
1/27/2021 8:30:00 AM -100000 -179968 -100000 -100000 -100000 -100000
1/27/2021 8:45:00 AM -100000 -179968 -100000 -100000 -100000 -100000
1/27/2021 9:00:00 AM -100000 -179968 -100000 -100000 -100000 -100000
1/27/2021 9:15:00 AM -100000 -179968 -100000 -100000 -100000 -100000
1/27/2021 9:30:00 AM -100000 -179968 -100000 -100000 -100000 -100000
1/27/2021 9:45:00 AM -100000 -179968 -100000 -100000 -100000 -100000
1/27/2021 10:00:00 AM -100000 -179968 -100000 -100000 -100000 -100000
1/27/2021 10:15:00 AM -100000 -179968 -100000 -100000 -100000 -100000
1/27/2021 10:30:00 AM -100000 -179968 -100000 -100000 -100000 -100000
1/27/2021 10:45:00 AM -100000 -179968 -100000 -100000 -100000 -100000
1/27/2021 11:00:00 AM -100000 -179968 -100000 -100000 -100000 -100000
1/27/2021 11:15:00 AM -100000 -179968 -100000 -100000 -100000 -100000
1/27/2021 11:30:00 AM -100000 -179968 -100000 -100000 -100000 -100000
1/27/2021 11:45:00 AM -100000 -179968 -100000 -100000 -100000 -100000
1/27/2021 12:00:00 PM -100000 -179968 -100000 -100000 -100000 -100000
1/27/2021 12:15:00 PM -100000 -179968 -100000 -100000 -100000 -100000
1/27/2021 12:30:00 PM -100000 -179968 -100000 -100000 -100000 -100000
1/27/2021 12:45:00 PM -100000 -179968 -100000 -100000 -100000 -100000
1/27/2021 1:00:00 PM -100000 -179968 -100000 -100000 -100000 -100000
1/27/2021 1:15:00 PM -100000 -179968 -100000 -100000 -100000 -100000
1/27/2021 1:30:00 PM -100000 -179968 -100000 -100000 -100000 -100000
1/27/2021 1:45:00 PM -100000 -179968 -100000 -100000 -100000 -100000
1/27/2021 2:00:00 PM -100000 -179968 -100000 -100000 -100000 -100000
1/27/2021 2:15:00 PM -100000 -179968 -100000 -100000 -100000 -100000
1/27/2021 2:30:00 PM -100000 -179968 -100000 -100000 -100000 -100000
1/27/2021 2:45:00 PM -100000 -179968 -100000 -100000 -100000 -100000
1/27/2021 3:00:00 PM -100000 -179968 -100000 -100000 -100000 -100000
1/27/2021 3:15:00 PM -100000 -179968 -100000 -100000 -100000 -100000
1/27/2021 4:00:00 PM 2.76 36.968 0.202 7.22 2.1 13.85
1/27/2021 4:15:00 PM 2.75 36.95 0.202 7.25 2.44 13.86
1/27/2021 4:30:00 PM 2.74 36.932 0.203 7.27 2.34 13.88
1/27/2021 4:45:00 PM 2.74 36.932 0.203 7.27 1.96 13.85
1/27/2021 5:00:00 PM 2.73 36.914 0.203 7.26 2.39 13.85
1/27/2021 5:15:00 PM 2.73 36.914 0.203 7.28 1.88 13.83
1/27/2021 5:30:00 PM 2.72 36.896 0.203 7.28 2.12 13.81
1/27/2021 5:45:00 PM 2.72 36.896 0.203 7.28 2.17 13.82
1/27/2021 6:00:00 PM 2.7 36.86 0.203 7.28 1.93 13.8
1/27/2021 6:15:00 PM 2.68 36.824 0.203 7.28 2.23 13.8
1/27/2021 6:30:00 PM 2.66 36.788 0.203 7.28 2.07 13.8
1/27/2021 6:45:00 PM 2.65 36.77 0.203 7.29 1.99 13.78
1/27/2021 7:00:00 PM 2.63 36.734 0.204 7.3 2.16 13.78
1/27/2021 7:15:00 PM 2.6 36.68 0.204 7.29 2.15 13.78
1/27/2021 7:30:00 PM 2.59 36.662 0.204 7.28 2.19 13.77
1/27/2021 7:45:00 PM 2.57 36.626 0.204 7.28 2.12 13.75
1/27/2021 8:00:00 PM 2.57 36.626 0.204 7.29 1.98 13.75
1/27/2021 8:15:00 PM 2.56 36.608 0.205 7.28 2.14 13.73
1/27/2021 8:30:00 PM 2.55 36.59 0.204 7.28 2.06 13.71
1/27/2021 8:45:00 PM 2.55 36.59 0.204 7.28 2.18 13.71
1/27/2021 9:00:00 PM 2.54 36.572 0.204 7.27 2.47 13.7
1/27/2021 9:15:00 PM 2.53 36.554 0.204 7.27 2.47 13.71
1/27/2021 9:30:00 PM 2.53 36.554 0.204 7.27 2.59 13.67
1/27/2021 9:45:00 PM 2.52 36.536 0.204 7.27 2.65 13.68
1/27/2021 10:00:00 PM 2.51 36.518 0.203 7.27 2.53 13.68
1/27/2021 10:15:00 PM 2.5 36.5 0.204 7.27 2.61 13.67
1/27/2021 10:30:00 PM 2.49 36.482 0.204 7.28 2.55 13.65
1/27/2021 10:45:00 PM 2.47 36.446 0.203 7.28 2.24 13.67
1/27/2021 11:00:00 PM 2.46 36.428 0.203 7.27 2.67 13.67
1/27/2021 11:15:00 PM 2.43 36.374 0.203 7.27 4.12 13.67
1/27/2021 11:30:00 PM 2.41 36.338 0.204 7.28 2.46 13.68
1/27/2021 11:45:00 PM 2.39 36.302 0.204 7.28 2.58 13.66
1/28/2021 12:00:00 AM 2.36 36.248 0.204 7.29 2.6 13.67
1/28/2021 12:15:00 AM 2.33 36.194 0.204 7.28 2.47 13.68
1/28/2021 12:30:00 AM 2.31 36.158 0.204 7.28 2.87 13.65
1/28/2021 12:45:00 AM 2.29 36.122 0.204 7.28 2.65 13.66
1/28/2021 1:00:00 AM 2.27 36.086 0.204 7.28 2.52 13.67
1/28/2021 1:15:00 AM 2.25 36.05 0.204 7.28 2.42 13.65
1/28/2021 1:30:00 AM 2.22 35.996 0.204 7.28 2.57 13.66
1/28/2021 1:45:00 AM 2.21 35.978 0.204 7.28 2.61 13.66
1/28/2021 2:00:00 AM 2.19 35.942 0.204 7.28 3.08 13.67
1/28/2021 2:15:00 AM 2.17 35.906 0.204 7.28 2.5 13.68
1/28/2021 2:30:00 AM 2.15 35.87 0.204 7.28 2.48 13.66
1/28/2021 2:45:00 AM 2.13 35.834 0.204 7.27 2.43 13.68
1/28/2021 3:00:00 AM 2.11 35.798 0.204 7.27 2.65 13.68
1/28/2021 3:15:00 AM 2.1 35.78 0.204 7.27 2.68 13.67
1/28/2021 3:30:00 AM 2.08 35.744 0.197 7.27 2.42 13.66
1/28/2021 3:45:00 AM 2.05 35.69 0.194 7.27 2.65 13.69
1/28/2021 4:00:00 AM 2.03 35.654 0.192 7.26 2.42 13.67
1/28/2021 4:15:00 AM 1.99 35.582 0.202 7.26 2.65 13.68
1/28/2021 4:30:00 AM 1.97 35.546 0.201 7.26 2.67 13.68
1/28/2021 4:45:00 AM 1.93 35.474 0.199 7.25 2.51 13.67
1/28/2021 5:00:00 AM 1.9 35.42 0.199 7.25 2.95 13.67
1/28/2021 5:15:00 AM 1.87 35.366 0.197 7.26 2.88 13.68
1/28/2021 5:30:00 AM 1.83 35.294 0.198 7.26 2.56 13.67
1/28/2021 5:45:00 AM 1.79 35.222 0.194 7.26 2.78 13.69
1/28/2021 6:00:00 AM 1.76 35.168 0.204 7.26 2.84 13.7
1/28/2021 6:15:00 AM 1.71 35.078 0.196 7.25 3.77 13.7
1/28/2021 6:30:00 AM 1.69 35.042 0.2 7.25 2.7 13.67
1/28/2021 6:45:00 AM 1.64 34.952 0.186 7.25 2.03 13.7
1/28/2021 7:00:00 AM 1.6 34.88 0.19 7.24 2.8 13.71
1/28/2021 7:15:00 AM 1.56 34.808 0.186 7.24 2.62 13.73
1/28/2021 7:30:00 AM 1.51 34.718 0.197 7.25 3.53 13.73
1/28/2021 7:45:00 AM 1.48 34.664 0.195 7.24 2.65 13.72
1/28/2021 8:00:00 AM 1.44 34.592 0.201 7.24 2.5 13.74
1/28/2021 8:15:00 AM 1.41 34.538 0.204 7.25 2.96 13.74
1/28/2021 8:30:00 AM 1.39 34.502 0.199 7.25 2.4 13.79
1/28/2021 8:45:00 AM 1.35 34.43 0.199 7.24 2.35 13.81
1/28/2021 9:00:00 AM 1.33 34.394 0.199 7.26 2.37 13.82
1/28/2021 9:15:00 AM 1.32 34.376 0.199 7.17 2.1 13.85
1/28/2021 9:30:00 AM 1.35 34.43 0.2 7.14 3.69 13.85
1/28/2021 9:45:00 AM 1.38 34.484 0.199 7.12 2.1 13.9
1/28/2021 10:00:00 AM 1.44 34.592 0.184 7.14 2.31 13.92
1/28/2021 10:15:00 AM 1.49 34.682 0.185 7.13 3.06 13.91
1/28/2021 10:30:00 AM 1.55 34.79 0.186 7.11 3.18 13.94
1/28/2021 10:45:00 AM 1.62 34.916 0.187 6.99 2.27 13.93
1/28/2021 11:00:00 AM 1.66 34.988 0.187 7.24 2.13 13.98
1/28/2021 11:15:00 AM 1.73 35.114 0.197 7.24 2.41 13.99
1/28/2021 11:30:00 AM 1.75 35.15 0.202 7.24 2.21 13.99
1/28/2021 11:45:00 AM 1.8 35.24 0.201 7.24 2.13 14.02
1/28/2021 12:00:00 PM 1.86 35.348 0.204 7.25 2.2 14.05
1/28/2021 12:15:00 PM 1.91 35.438 0.186 7.25 2.19 14.04
1/28/2021 12:30:00 PM 2.01 35.618 0.201 7.24 2.47 14.06
1/28/2021 12:45:00 PM 2.05 35.69 0.2 7.24 2.06 14.07
1/28/2021 1:00:00 PM 2.19 35.942 0.204 7.25 1.94 14.05
1/28/2021 1:15:00 PM 2.14 35.852 0.204 7.25 1.88 14.07
1/28/2021 1:30:00 PM 2.23 36.014 0.204 7.25 2.07 14.09
1/28/2021 1:45:00 PM 2.24 36.032 0.204 7.24 2.85 14.09
1/28/2021 2:00:00 PM 2.33 36.194 0.204 7.26 2.38 14.08
1/28/2021 2:15:00 PM 2.37 36.266 0.204 7.22 2.26 14.1
1/28/2021 2:30:00 PM 2.34 36.212 0.204 7.22 2.79 14.11
1/28/2021 2:45:00 PM 2.36 36.248 0.204 7.24 2.51 14.1
1/28/2021 3:00:00 PM 2.38 36.284 0.204 7.2 2.59 14.11
1/28/2021 3:15:00 PM 2.38 36.284 0.204 7.22 2.46 14.11
1/28/2021 3:30:00 PM 2.35 36.23 0.204 7.19 2.46 14.09
1/28/2021 3:45:00 PM 2.34 36.212 0.204 7.24 2.07 14.09
1/28/2021 4:00:00 PM 2.3 36.14 0.188 7.27 2.64 14.09
1/28/2021 4:15:00 PM 2.25 36.05 0.193 7.24 2.24 14.11
1/28/2021 4:30:00 PM 2.23 36.014 0.197 7.25 2.4 14.13
1/28/2021 4:45:00 PM 2.14 35.852 0.197 7.25 1.88 14.11
1/28/2021 5:00:00 PM 2.08 35.744 0.198 7.24 2.78 14.12
1/28/2021 5:15:00 PM 1.98 35.564 0.197 7.25 2.26 14.15
1/28/2021 5:30:00 PM 1.93 35.474 0.197 7.25 2.14 14.1
1/28/2021 5:45:00 PM 1.85 35.33 0.194 7.25 2.12 14.13
1/28/2021 6:00:00 PM 1.76 35.168 0.197 7.23 2.02 14.15
1/28/2021 6:15:00 PM 1.67 35.006 0.188 7.25 2.19 14.12
1/28/2021 6:30:00 PM 1.6 34.88 0.205 7.24 2.5 14.14
1/28/2021 6:45:00 PM 1.51 34.718 0.205 7.25 1.79 14.16
1/28/2021 7:00:00 PM 1.43 34.574 0.206 7.26 1.99 14.15
1/28/2021 7:15:00 PM 1.35 34.43 0.206 7.25 2.93 14.16
1/28/2021 7:30:00 PM 1.27 34.286 0.195 7.24 2.95 14.17
1/28/2021 7:45:00 PM 1.23 34.214 0.206 7.25 2.39 14.16
1/28/2021 8:00:00 PM 1.16 34.088 0.206 7.23 4.61 14.18
1/28/2021 8:15:00 PM 1.08 33.944 0.199 7.21 2.67 14.2
1/28/2021 8:30:00 PM 1.04 33.872 0.207 7.22 2.16 14.2
1/28/2021 8:45:00 PM 1 33.8 0.207 7.22 1.85 14.19
1/28/2021 9:00:00 PM 0.93 33.674 0.207 7.15 2.33 14.22
1/28/2021 9:15:00 PM 0.9 33.62 0.207 7.09 3.36 14.21
1/28/2021 9:30:00 PM 0.86 33.548 0.207 7.1 2.97 14.21
1/28/2021 9:45:00 PM 0.83 33.494 0.208 7.06 3.1 14.22
1/28/2021 10:00:00 PM 0.78 33.404 0.208 7.01 2.57 14.23
1/28/2021 10:15:00 PM 0.75 33.35 0.208 7.19 2.56 14.22
1/28/2021 10:30:00 PM 0.72 33.296 0.208 7.18 2.05 14.25
1/28/2021 10:45:00 PM 0.66 33.188 0.208 7.19 3.15 14.24
1/28/2021 11:00:00 PM 0.61 33.098 0.208 7.2 3.71 14.24
1/28/2021 11:15:00 PM 0.59 33.062 0.208 7.19 2.68 14.23
1/28/2021 11:30:00 PM 0.55 32.99 0.208 7.17 2.44 14.27
1/28/2021 11:45:00 PM 0.49 32.882 0.208 7.18 2.3 14.28
1/29/2021 12:00:00 AM 0.46 32.828 0.208 7.16 2.57 14.28
1/29/2021 12:15:00 AM 0.44 32.792 0.208 7.17 2.06 14.3
1/29/2021 12:30:00 AM 0.42 32.756 0.208 7.18 2.66 14.33
1/29/2021 12:45:00 AM 0.38 32.684 0.207 7.17 2.04 14.33
1/29/2021 1:00:00 AM 0.34 32.612 0.207 7.19 2.02 14.32
1/29/2021 1:15:00 AM 0.32 32.576 0.207 7.16 2.7 14.33
1/29/2021 1:30:00 AM 0.28 32.504 0.205 7.15 3.51 14.34
1/29/2021 1:45:00 AM 0.24 32.432 0.207 7.17 2.58 14.35
1/29/2021 2:00:00 AM 0.21 32.378 0.207 7.21 2.84 14.35
1/29/2021 2:15:00 AM 0.16 32.288 0.207 7.21 2.37 14.37
1/29/2021 2:30:00 AM 0.11 32.198 0.206 7.21 2.22 14.41
1/29/2021 2:45:00 AM 0.08 32.144 0.206 7.2 2.55 14.38
1/29/2021 3:00:00 AM 0.06 32.108 0.206 7.19 2.03 14.4
1/29/2021 3:15:00 AM 0.03 32.054 0.206 7.19 2.2 14.41
1/29/2021 3:30:00 AM 0 32 0.206 7.2 2.93 14.42
1/29/2021 3:45:00 AM -0.02 31.964 0.206 7.19 2.23 14.44
1/29/2021 4:00:00 AM -0.05 31.91 0.205 7.19 2.45 14.46
1/29/2021 4:15:00 AM -0.08 31.856 0.205 7.19 2.57 14.49
1/29/2021 4:30:00 AM -0.08 31.856 0.205 7.16 2.7 14.5
1/29/2021 4:45:00 AM -0.1 31.82 0.205 7.17 2.15 14.47
1/29/2021 5:00:00 AM -0.09 31.838 0.204 7.17 2.13 14.49
1/29/2021 5:15:00 AM -0.07 31.874 0.218 7.18 2.08 14.5
1/29/2021 5:30:00 AM -0.06 31.892 0.204 7.17 1.66 14.53
1/29/2021 5:45:00 AM -0.06 31.892 0.203 7.18 2.11 14.54
1/29/2021 6:00:00 AM -0.06 31.892 0.203 7.18 2.91 14.51

These are provisional data and have not been subject to a quality assurance process, but rather are the raw data reported by the instrument.
H: value is above sensor operating range
L: value is below sensor operating range
Offline: station is not reporting data
NC: parameter is not collected at site

Data Availability & Limitations

Uncertainty and potential for error can be associated with environmental monitoring data. Provisional data have not been subject to a quality assurance process, but rather are the raw data reported by the instrument. Data users are cautioned to consider carefully the provisional nature of the information before using it for decisions that concern personal or public safety or the conduct of business that involves substantial monetary or operational consequences.

Approved data are currently available by request by emailing: srbc@srbc.net. Approved data have been subject to a quality assurance process to correct for equipment or fouling drift. Data recorded during equipment malfunctions have been removed.

View Historical Stations that have been discontinued.